<?xml version="1.0" encoding="UTF-8" standalone="no" ?>
<gpx xmlns="http://www.topografix.com/GPX/1/1" xmlns:xsi="http://www.w3.org/2001/XMLSchema-instance" xsi:schemaLocation="http://www.topografix.com/GPX/1/1 http://www.topografix.com/GPX/1/1/gpx.xsd" version="1.1" creator="VisuGPX - https://www.visugpx.com">
  <metadata>
    <name>2018-05-04 - ski couloirs Chamrousse</name>
    <desc><![CDATA[couloirs de fin de saison à Chamrousse. C'est très bon.]]></desc>
  </metadata>
  <trk>
    <name><![CDATA[2018-05-04 - ski couloirs Chamrousse]]></name>
    <trkseg>
      <trkpt lat="45.1256" lon="5.87968">
        <ele>1656.49</ele>
        <time>2018-05-04T07:55:03Z</time>
      </trkpt>
      <trkpt lat="45.12559" lon="5.87972">
        <ele>1662.74</ele>
        <time>2018-05-04T07:55:13Z</time>
      </trkpt>
      <trkpt lat="45.12559" lon="5.87974">
        <ele>1663.7</ele>
        <time>2018-05-04T07:55:16Z</time>
      </trkpt>
      <trkpt lat="45.1256" lon="5.87971">
        <ele>1665.14</ele>
        <time>2018-05-04T07:55:33Z</time>
      </trkpt>
      <trkpt lat="45.12559" lon="5.8797">
        <ele>1667.06</ele>
        <time>2018-05-04T07:55:38Z</time>
      </trkpt>
      <trkpt lat="45.1256" lon="5.87969">
        <ele>1667.54</ele>
        <time>2018-05-04T07:55:41Z</time>
      </trkpt>
      <trkpt lat="45.12559" lon="5.87977">
        <ele>1668.51</ele>
        <time>2018-05-04T07:55:49Z</time>
      </trkpt>
      <trkpt lat="45.12563" lon="5.87986">
        <ele>1670.43</ele>
        <time>2018-05-04T07:55:55Z</time>
      </trkpt>
      <trkpt lat="45.12564" lon="5.8799">
        <ele>1671.39</ele>
        <time>2018-05-04T07:55:58Z</time>
      </trkpt>
      <trkpt lat="45.12567" lon="5.88">
        <ele>1672.83</ele>
        <time>2018-05-04T07:56:06Z</time>
      </trkpt>
      <trkpt lat="45.12569" lon="5.88005">
        <ele>1673.31</ele>
        <time>2018-05-04T07:56:10Z</time>
      </trkpt>
      <trkpt lat="45.12569" lon="5.88009">
        <ele>1674.27</ele>
        <time>2018-05-04T07:56:13Z</time>
      </trkpt>
      <trkpt lat="45.12568" lon="5.88032">
        <ele>1676.2</ele>
        <time>2018-05-04T07:56:29Z</time>
      </trkpt>
      <trkpt lat="45.12565" lon="5.88043">
        <ele>1677.16</ele>
        <time>2018-05-04T07:56:37Z</time>
      </trkpt>
      <trkpt lat="45.1256" lon="5.88053">
        <ele>1678.12</ele>
        <time>2018-05-04T07:56:45Z</time>
      </trkpt>
      <trkpt lat="45.12556" lon="5.88056">
        <ele>1678.6</ele>
        <time>2018-05-04T07:56:49Z</time>
      </trkpt>
      <trkpt lat="45.12544" lon="5.88067">
        <ele>1680.52</ele>
        <time>2018-05-04T07:57:04Z</time>
      </trkpt>
      <trkpt lat="45.12538" lon="5.88073">
        <ele>1681.96</ele>
        <time>2018-05-04T07:57:13Z</time>
      </trkpt>
      <trkpt lat="45.12531" lon="5.88077">
        <ele>1682.93</ele>
        <time>2018-05-04T07:57:20Z</time>
      </trkpt>
      <trkpt lat="45.12522" lon="5.88079">
        <ele>1684.37</ele>
        <time>2018-05-04T07:57:30Z</time>
      </trkpt>
      <trkpt lat="45.12506" lon="5.88081">
        <ele>1685.81</ele>
        <time>2018-05-04T07:57:45Z</time>
      </trkpt>
      <trkpt lat="45.12491" lon="5.88083">
        <ele>1688.21</ele>
        <time>2018-05-04T07:58:01Z</time>
      </trkpt>
      <trkpt lat="45.12488" lon="5.88083">
        <ele>1689.17</ele>
        <time>2018-05-04T07:58:04Z</time>
      </trkpt>
      <trkpt lat="45.12475" lon="5.88085">
        <ele>1691.1</ele>
        <time>2018-05-04T07:58:20Z</time>
      </trkpt>
      <trkpt lat="45.12463" lon="5.88088">
        <ele>1693.98</ele>
        <time>2018-05-04T07:58:35Z</time>
      </trkpt>
      <trkpt lat="45.12454" lon="5.88092">
        <ele>1696.86</ele>
        <time>2018-05-04T07:58:49Z</time>
      </trkpt>
      <trkpt lat="45.12446" lon="5.88094">
        <ele>1699.27</ele>
        <time>2018-05-04T07:59:04Z</time>
      </trkpt>
      <trkpt lat="45.12437" lon="5.88097">
        <ele>1702.15</ele>
        <time>2018-05-04T07:59:16Z</time>
      </trkpt>
      <trkpt lat="45.12427" lon="5.881">
        <ele>1705.52</ele>
        <time>2018-05-04T07:59:31Z</time>
      </trkpt>
      <trkpt lat="45.12418" lon="5.88105">
        <ele>1708.4</ele>
        <time>2018-05-04T07:59:45Z</time>
      </trkpt>
      <trkpt lat="45.12415" lon="5.88106">
        <ele>1709.36</ele>
        <time>2018-05-04T07:59:49Z</time>
      </trkpt>
      <trkpt lat="45.12406" lon="5.88109">
        <ele>1711.76</ele>
        <time>2018-05-04T08:00:03Z</time>
      </trkpt>
      <trkpt lat="45.12397" lon="5.88113">
        <ele>1714.65</ele>
        <time>2018-05-04T08:00:17Z</time>
      </trkpt>
      <trkpt lat="45.1239" lon="5.88119">
        <ele>1717.53</ele>
        <time>2018-05-04T08:00:30Z</time>
      </trkpt>
      <trkpt lat="45.12381" lon="5.88124">
        <ele>1720.42</ele>
        <time>2018-05-04T08:00:45Z</time>
      </trkpt>
      <trkpt lat="45.12374" lon="5.8813">
        <ele>1723.78</ele>
        <time>2018-05-04T08:00:59Z</time>
      </trkpt>
      <trkpt lat="45.12363" lon="5.88133">
        <ele>1727.15</ele>
        <time>2018-05-04T08:01:15Z</time>
      </trkpt>
      <trkpt lat="45.12354" lon="5.88134">
        <ele>1730.51</ele>
        <time>2018-05-04T08:01:30Z</time>
      </trkpt>
      <trkpt lat="45.12346" lon="5.88133">
        <ele>1733.39</ele>
        <time>2018-05-04T08:01:41Z</time>
      </trkpt>
      <trkpt lat="45.12337" lon="5.88131">
        <ele>1735.8</ele>
        <time>2018-05-04T08:01:53Z</time>
      </trkpt>
      <trkpt lat="45.12329" lon="5.88133">
        <ele>1738.68</ele>
        <time>2018-05-04T08:02:07Z</time>
      </trkpt>
      <trkpt lat="45.12321" lon="5.88138">
        <ele>1741.57</ele>
        <time>2018-05-04T08:02:21Z</time>
      </trkpt>
      <trkpt lat="45.12312" lon="5.88143">
        <ele>1744.45</ele>
        <time>2018-05-04T08:02:36Z</time>
      </trkpt>
      <trkpt lat="45.12305" lon="5.88149">
        <ele>1747.33</ele>
        <time>2018-05-04T08:02:51Z</time>
      </trkpt>
      <trkpt lat="45.12296" lon="5.88155">
        <ele>1750.7</ele>
        <time>2018-05-04T08:03:06Z</time>
      </trkpt>
      <trkpt lat="45.1229" lon="5.88159">
        <ele>1754.06</ele>
        <time>2018-05-04T08:03:19Z</time>
      </trkpt>
      <trkpt lat="45.12282" lon="5.88163">
        <ele>1757.43</ele>
        <time>2018-05-04T08:03:35Z</time>
      </trkpt>
      <trkpt lat="45.12273" lon="5.88165">
        <ele>1760.31</ele>
        <time>2018-05-04T08:03:50Z</time>
      </trkpt>
      <trkpt lat="45.12264" lon="5.88165">
        <ele>1762.71</ele>
        <time>2018-05-04T08:04:05Z</time>
      </trkpt>
      <trkpt lat="45.12256" lon="5.88164">
        <ele>1766.08</ele>
        <time>2018-05-04T08:04:20Z</time>
      </trkpt>
      <trkpt lat="45.12247" lon="5.88163">
        <ele>1769.44</ele>
        <time>2018-05-04T08:04:34Z</time>
      </trkpt>
      <trkpt lat="45.1224" lon="5.88165">
        <ele>1772.33</ele>
        <time>2018-05-04T08:04:47Z</time>
      </trkpt>
      <trkpt lat="45.12239" lon="5.88178">
        <ele>1775.21</ele>
        <time>2018-05-04T08:05:02Z</time>
      </trkpt>
      <trkpt lat="45.12236" lon="5.88191">
        <ele>1778.1</ele>
        <time>2018-05-04T08:05:18Z</time>
      </trkpt>
      <trkpt lat="45.12236" lon="5.88193">
        <ele>1778.58</ele>
        <time>2018-05-04T08:05:20Z</time>
      </trkpt>
      <trkpt lat="45.12231" lon="5.88204">
        <ele>1781.46</ele>
        <time>2018-05-04T08:05:35Z</time>
      </trkpt>
      <trkpt lat="45.1223" lon="5.88217">
        <ele>1784.82</ele>
        <time>2018-05-04T08:05:52Z</time>
      </trkpt>
      <trkpt lat="45.12227" lon="5.88232">
        <ele>1787.71</ele>
        <time>2018-05-04T08:06:08Z</time>
      </trkpt>
      <trkpt lat="45.12223" lon="5.88245">
        <ele>1790.59</ele>
        <time>2018-05-04T08:06:22Z</time>
      </trkpt>
      <trkpt lat="45.12219" lon="5.88258">
        <ele>1793</ele>
        <time>2018-05-04T08:06:36Z</time>
      </trkpt>
      <trkpt lat="45.12216" lon="5.88274">
        <ele>1795.88</ele>
        <time>2018-05-04T08:06:51Z</time>
      </trkpt>
      <trkpt lat="45.12211" lon="5.88291">
        <ele>1798.28</ele>
        <time>2018-05-04T08:07:06Z</time>
      </trkpt>
      <trkpt lat="45.12208" lon="5.88301">
        <ele>1799.73</ele>
        <time>2018-05-04T08:07:16Z</time>
      </trkpt>
      <trkpt lat="45.12202" lon="5.88317">
        <ele>1803.09</ele>
        <time>2018-05-04T08:07:32Z</time>
      </trkpt>
      <trkpt lat="45.122" lon="5.88324">
        <ele>1804.05</ele>
        <time>2018-05-04T08:07:39Z</time>
      </trkpt>
      <trkpt lat="45.12193" lon="5.88341">
        <ele>1806.94</ele>
        <time>2018-05-04T08:07:55Z</time>
      </trkpt>
      <trkpt lat="45.12188" lon="5.88355">
        <ele>1809.82</ele>
        <time>2018-05-04T08:08:10Z</time>
      </trkpt>
      <trkpt lat="45.12182" lon="5.8837">
        <ele>1812.22</ele>
        <time>2018-05-04T08:08:25Z</time>
      </trkpt>
      <trkpt lat="45.12178" lon="5.88377">
        <ele>1813.66</ele>
        <time>2018-05-04T08:08:33Z</time>
      </trkpt>
      <trkpt lat="45.12175" lon="5.88384">
        <ele>1814.63</ele>
        <time>2018-05-04T08:08:39Z</time>
      </trkpt>
      <trkpt lat="45.12171" lon="5.88395">
        <ele>1816.55</ele>
        <time>2018-05-04T08:08:50Z</time>
      </trkpt>
      <trkpt lat="45.12167" lon="5.88407">
        <ele>1818.47</ele>
        <time>2018-05-04T08:09:04Z</time>
      </trkpt>
      <trkpt lat="45.12167" lon="5.88407">
        <ele>1817.51</ele>
        <time>2018-05-04T08:09:12Z</time>
      </trkpt>
      <trkpt lat="45.12167" lon="5.88407">
        <ele>1807.9</ele>
        <time>2018-05-04T08:09:16Z</time>
      </trkpt>
      <trkpt lat="45.12167" lon="5.88407">
        <ele>1816.55</ele>
        <time>2018-05-04T08:09:17Z</time>
      </trkpt>
      <trkpt lat="45.12168" lon="5.88406">
        <ele>1813.18</ele>
        <time>2018-05-04T08:09:43Z</time>
      </trkpt>
      <trkpt lat="45.12168" lon="5.88406">
        <ele>1817.03</ele>
        <time>2018-05-04T08:09:44Z</time>
      </trkpt>
      <trkpt lat="45.12169" lon="5.88408">
        <ele>1818.47</ele>
        <time>2018-05-04T08:09:57Z</time>
      </trkpt>
      <trkpt lat="45.12168" lon="5.88406">
        <ele>1818.47</ele>
        <time>2018-05-04T08:10:13Z</time>
      </trkpt>
      <trkpt lat="45.12169" lon="5.88408">
        <ele>1817.03</ele>
        <time>2018-05-04T08:10:20Z</time>
      </trkpt>
      <trkpt lat="45.12168" lon="5.88405">
        <ele>1817.03</ele>
        <time>2018-05-04T08:10:41Z</time>
      </trkpt>
      <trkpt lat="45.12169" lon="5.88406">
        <ele>1818.95</ele>
        <time>2018-05-04T08:10:43Z</time>
      </trkpt>
      <trkpt lat="45.12167" lon="5.88413">
        <ele>1818.95</ele>
        <time>2018-05-04T08:11:00Z</time>
      </trkpt>
      <trkpt lat="45.12167" lon="5.88413">
        <ele>1819.43</ele>
        <time>2018-05-04T08:11:01Z</time>
      </trkpt>
      <trkpt lat="45.12165" lon="5.88417">
        <ele>1819.91</ele>
        <time>2018-05-04T08:11:05Z</time>
      </trkpt>
      <trkpt lat="45.12158" lon="5.88434">
        <ele>1822.32</ele>
        <time>2018-05-04T08:11:21Z</time>
      </trkpt>
      <trkpt lat="45.12155" lon="5.88446">
        <ele>1825.68</ele>
        <time>2018-05-04T08:11:35Z</time>
      </trkpt>
      <trkpt lat="45.1215" lon="5.88462">
        <ele>1828.08</ele>
        <time>2018-05-04T08:11:50Z</time>
      </trkpt>
      <trkpt lat="45.1215" lon="5.88463">
        <ele>1828.56</ele>
        <time>2018-05-04T08:11:51Z</time>
      </trkpt>
      <trkpt lat="45.12146" lon="5.88484">
        <ele>1830.97</ele>
        <time>2018-05-04T08:12:07Z</time>
      </trkpt>
      <trkpt lat="45.12143" lon="5.88494">
        <ele>1832.89</ele>
        <time>2018-05-04T08:12:18Z</time>
      </trkpt>
      <trkpt lat="45.12139" lon="5.88512">
        <ele>1835.29</ele>
        <time>2018-05-04T08:12:33Z</time>
      </trkpt>
      <trkpt lat="45.12138" lon="5.88526">
        <ele>1838.18</ele>
        <time>2018-05-04T08:12:47Z</time>
      </trkpt>
      <trkpt lat="45.1214" lon="5.8854">
        <ele>1841.06</ele>
        <time>2018-05-04T08:13:01Z</time>
      </trkpt>
      <trkpt lat="45.12141" lon="5.88554">
        <ele>1844.43</ele>
        <time>2018-05-04T08:13:15Z</time>
      </trkpt>
      <trkpt lat="45.12141" lon="5.88567">
        <ele>1846.83</ele>
        <time>2018-05-04T08:13:30Z</time>
      </trkpt>
      <trkpt lat="45.12143" lon="5.88581">
        <ele>1849.23</ele>
        <time>2018-05-04T08:13:43Z</time>
      </trkpt>
      <trkpt lat="45.12144" lon="5.88598">
        <ele>1852.6</ele>
        <time>2018-05-04T08:13:59Z</time>
      </trkpt>
      <trkpt lat="45.12144" lon="5.886">
        <ele>1853.08</ele>
        <time>2018-05-04T08:14:01Z</time>
      </trkpt>
      <trkpt lat="45.12142" lon="5.8862">
        <ele>1855.96</ele>
        <time>2018-05-04T08:14:18Z</time>
      </trkpt>
      <trkpt lat="45.12143" lon="5.88637">
        <ele>1858.85</ele>
        <time>2018-05-04T08:14:33Z</time>
      </trkpt>
      <trkpt lat="45.12142" lon="5.88655">
        <ele>1862.21</ele>
        <time>2018-05-04T08:14:48Z</time>
      </trkpt>
      <trkpt lat="45.12141" lon="5.88666">
        <ele>1863.65</ele>
        <time>2018-05-04T08:14:57Z</time>
      </trkpt>
      <trkpt lat="45.1214" lon="5.88673">
        <ele>1864.61</ele>
        <time>2018-05-04T08:15:02Z</time>
      </trkpt>
      <trkpt lat="45.1214" lon="5.88678">
        <ele>1865.09</ele>
        <time>2018-05-04T08:15:06Z</time>
      </trkpt>
      <trkpt lat="45.12139" lon="5.88699">
        <ele>1866.54</ele>
        <time>2018-05-04T08:15:21Z</time>
      </trkpt>
      <trkpt lat="45.12137" lon="5.88718">
        <ele>1867.98</ele>
        <time>2018-05-04T08:15:34Z</time>
      </trkpt>
      <trkpt lat="45.12137" lon="5.88742">
        <ele>1869.9</ele>
        <time>2018-05-04T08:15:51Z</time>
      </trkpt>
      <trkpt lat="45.1214" lon="5.8876">
        <ele>1870.86</ele>
        <time>2018-05-04T08:16:04Z</time>
      </trkpt>
      <trkpt lat="45.12143" lon="5.88779">
        <ele>1871.34</ele>
        <time>2018-05-04T08:16:18Z</time>
      </trkpt>
      <trkpt lat="45.12144" lon="5.88783">
        <ele>1871.34</ele>
        <time>2018-05-04T08:16:20Z</time>
      </trkpt>
      <trkpt lat="45.12146" lon="5.88792">
        <ele>1871.82</ele>
        <time>2018-05-04T08:16:26Z</time>
      </trkpt>
      <trkpt lat="45.12148" lon="5.88803">
        <ele>1872.3</ele>
        <time>2018-05-04T08:16:34Z</time>
      </trkpt>
      <trkpt lat="45.1215" lon="5.88817">
        <ele>1872.3</ele>
        <time>2018-05-04T08:16:42Z</time>
      </trkpt>
      <trkpt lat="45.12151" lon="5.88834">
        <ele>1873.27</ele>
        <time>2018-05-04T08:16:54Z</time>
      </trkpt>
      <trkpt lat="45.12152" lon="5.88855">
        <ele>1875.67</ele>
        <time>2018-05-04T08:17:10Z</time>
      </trkpt>
      <trkpt lat="45.12151" lon="5.88869">
        <ele>1877.59</ele>
        <time>2018-05-04T08:17:21Z</time>
      </trkpt>
      <trkpt lat="45.12151" lon="5.88874">
        <ele>1878.07</ele>
        <time>2018-05-04T08:17:25Z</time>
      </trkpt>
      <trkpt lat="45.12152" lon="5.88885">
        <ele>1879.03</ele>
        <time>2018-05-04T08:17:33Z</time>
      </trkpt>
      <trkpt lat="45.12153" lon="5.88898">
        <ele>1880.96</ele>
        <time>2018-05-04T08:17:43Z</time>
      </trkpt>
      <trkpt lat="45.12154" lon="5.88911">
        <ele>1883.84</ele>
        <time>2018-05-04T08:17:57Z</time>
      </trkpt>
      <trkpt lat="45.12156" lon="5.88925">
        <ele>1886.72</ele>
        <time>2018-05-04T08:18:11Z</time>
      </trkpt>
      <trkpt lat="45.12155" lon="5.88937">
        <ele>1888.17</ele>
        <time>2018-05-04T08:18:21Z</time>
      </trkpt>
      <trkpt lat="45.12155" lon="5.88943">
        <ele>1889.13</ele>
        <time>2018-05-04T08:18:26Z</time>
      </trkpt>
      <trkpt lat="45.12154" lon="5.88949">
        <ele>1889.61</ele>
        <time>2018-05-04T08:18:30Z</time>
      </trkpt>
      <trkpt lat="45.12153" lon="5.88968">
        <ele>1891.05</ele>
        <time>2018-05-04T08:18:45Z</time>
      </trkpt>
      <trkpt lat="45.12153" lon="5.88972">
        <ele>1891.53</ele>
        <time>2018-05-04T08:18:49Z</time>
      </trkpt>
      <trkpt lat="45.1215" lon="5.88991">
        <ele>1894.9</ele>
        <time>2018-05-04T08:19:05Z</time>
      </trkpt>
      <trkpt lat="45.12149" lon="5.89005">
        <ele>1896.82</ele>
        <time>2018-05-04T08:19:19Z</time>
      </trkpt>
      <trkpt lat="45.12147" lon="5.89018">
        <ele>1900.18</ele>
        <time>2018-05-04T08:19:32Z</time>
      </trkpt>
      <trkpt lat="45.12144" lon="5.89031">
        <ele>1903.07</ele>
        <time>2018-05-04T08:19:46Z</time>
      </trkpt>
      <trkpt lat="45.12141" lon="5.89044">
        <ele>1906.43</ele>
        <time>2018-05-04T08:20:01Z</time>
      </trkpt>
      <trkpt lat="45.12138" lon="5.89054">
        <ele>1908.83</ele>
        <time>2018-05-04T08:20:14Z</time>
      </trkpt>
      <trkpt lat="45.12134" lon="5.89066">
        <ele>1910.76</ele>
        <time>2018-05-04T08:20:27Z</time>
      </trkpt>
      <trkpt lat="45.12131" lon="5.89078">
        <ele>1914.12</ele>
        <time>2018-05-04T08:20:40Z</time>
      </trkpt>
      <trkpt lat="45.12126" lon="5.89089">
        <ele>1916.53</ele>
        <time>2018-05-04T08:20:54Z</time>
      </trkpt>
      <trkpt lat="45.12124" lon="5.89099">
        <ele>1919.89</ele>
        <time>2018-05-04T08:21:07Z</time>
      </trkpt>
      <trkpt lat="45.12121" lon="5.89109">
        <ele>1922.29</ele>
        <time>2018-05-04T08:21:20Z</time>
      </trkpt>
      <trkpt lat="45.12117" lon="5.89119">
        <ele>1925.66</ele>
        <time>2018-05-04T08:21:33Z</time>
      </trkpt>
      <trkpt lat="45.12114" lon="5.89129">
        <ele>1928.06</ele>
        <time>2018-05-04T08:21:46Z</time>
      </trkpt>
      <trkpt lat="45.12111" lon="5.89138">
        <ele>1931.43</ele>
        <time>2018-05-04T08:22:00Z</time>
      </trkpt>
      <trkpt lat="45.12108" lon="5.89149">
        <ele>1934.31</ele>
        <time>2018-05-04T08:22:13Z</time>
      </trkpt>
      <trkpt lat="45.12103" lon="5.89161">
        <ele>1937.19</ele>
        <time>2018-05-04T08:22:30Z</time>
      </trkpt>
      <trkpt lat="45.12099" lon="5.89168">
        <ele>1939.12</ele>
        <time>2018-05-04T08:22:41Z</time>
      </trkpt>
      <trkpt lat="45.12095" lon="5.8918">
        <ele>1942.96</ele>
        <time>2018-05-04T08:22:56Z</time>
      </trkpt>
      <trkpt lat="45.1209" lon="5.89192">
        <ele>1945.85</ele>
        <time>2018-05-04T08:23:12Z</time>
      </trkpt>
      <trkpt lat="45.12089" lon="5.89201">
        <ele>1948.25</ele>
        <time>2018-05-04T08:23:25Z</time>
      </trkpt>
      <trkpt lat="45.12084" lon="5.89213">
        <ele>1951.61</ele>
        <time>2018-05-04T08:23:39Z</time>
      </trkpt>
      <trkpt lat="45.12079" lon="5.89225">
        <ele>1954.98</ele>
        <time>2018-05-04T08:23:55Z</time>
      </trkpt>
      <trkpt lat="45.12078" lon="5.89233">
        <ele>1955.94</ele>
        <time>2018-05-04T08:24:13Z</time>
      </trkpt>
      <trkpt lat="45.12074" lon="5.89247">
        <ele>1957.86</ele>
        <time>2018-05-04T08:24:27Z</time>
      </trkpt>
      <trkpt lat="45.12073" lon="5.8925">
        <ele>1958.34</ele>
        <time>2018-05-04T08:24:30Z</time>
      </trkpt>
      <trkpt lat="45.12071" lon="5.89267">
        <ele>1961.23</ele>
        <time>2018-05-04T08:24:46Z</time>
      </trkpt>
      <trkpt lat="45.12068" lon="5.8928">
        <ele>1964.11</ele>
        <time>2018-05-04T08:25:01Z</time>
      </trkpt>
      <trkpt lat="45.12066" lon="5.8929">
        <ele>1966.99</ele>
        <time>2018-05-04T08:25:14Z</time>
      </trkpt>
      <trkpt lat="45.12066" lon="5.893">
        <ele>1969.88</ele>
        <time>2018-05-04T08:25:28Z</time>
      </trkpt>
      <trkpt lat="45.1207" lon="5.89312">
        <ele>1972.28</ele>
        <time>2018-05-04T08:25:43Z</time>
      </trkpt>
      <trkpt lat="45.12074" lon="5.89326">
        <ele>1975.65</ele>
        <time>2018-05-04T08:25:59Z</time>
      </trkpt>
      <trkpt lat="45.12078" lon="5.89339">
        <ele>1978.05</ele>
        <time>2018-05-04T08:26:13Z</time>
      </trkpt>
      <trkpt lat="45.12083" lon="5.89346">
        <ele>1979.97</ele>
        <time>2018-05-04T08:26:24Z</time>
      </trkpt>
      <trkpt lat="45.12086" lon="5.89352">
        <ele>1982.38</ele>
        <time>2018-05-04T08:26:36Z</time>
      </trkpt>
      <trkpt lat="45.12088" lon="5.8936">
        <ele>1985.26</ele>
        <time>2018-05-04T08:26:49Z</time>
      </trkpt>
      <trkpt lat="45.12092" lon="5.89367">
        <ele>1987.66</ele>
        <time>2018-05-04T08:27:01Z</time>
      </trkpt>
      <trkpt lat="45.12094" lon="5.89376">
        <ele>1989.59</ele>
        <time>2018-05-04T08:27:13Z</time>
      </trkpt>
      <trkpt lat="45.12094" lon="5.89387">
        <ele>1991.99</ele>
        <time>2018-05-04T08:27:25Z</time>
      </trkpt>
      <trkpt lat="45.12093" lon="5.89398">
        <ele>1995.35</ele>
        <time>2018-05-04T08:27:41Z</time>
      </trkpt>
      <trkpt lat="45.1209" lon="5.89406">
        <ele>1997.76</ele>
        <time>2018-05-04T08:27:52Z</time>
      </trkpt>
      <trkpt lat="45.12087" lon="5.89414">
        <ele>1999.68</ele>
        <time>2018-05-04T08:28:04Z</time>
      </trkpt>
      <trkpt lat="45.12087" lon="5.89418">
        <ele>2000.64</ele>
        <time>2018-05-04T08:28:18Z</time>
      </trkpt>
      <trkpt lat="45.12086" lon="5.89418">
        <ele>2000.16</ele>
        <time>2018-05-04T08:28:31Z</time>
      </trkpt>
      <trkpt lat="45.12087" lon="5.89418">
        <ele>2000.16</ele>
        <time>2018-05-04T08:28:54Z</time>
      </trkpt>
      <trkpt lat="45.12087" lon="5.89417">
        <ele>1999.68</ele>
        <time>2018-05-04T08:29:19Z</time>
      </trkpt>
      <trkpt lat="45.12087" lon="5.8942">
        <ele>1999.68</ele>
        <time>2018-05-04T08:29:25Z</time>
      </trkpt>
      <trkpt lat="45.12087" lon="5.89427">
        <ele>2000.64</ele>
        <time>2018-05-04T08:29:31Z</time>
      </trkpt>
      <trkpt lat="45.12085" lon="5.89434">
        <ele>2001.12</ele>
        <time>2018-05-04T08:29:36Z</time>
      </trkpt>
      <trkpt lat="45.12084" lon="5.89442">
        <ele>2001.12</ele>
        <time>2018-05-04T08:29:42Z</time>
      </trkpt>
      <trkpt lat="45.1208" lon="5.89457">
        <ele>2002.08</ele>
        <time>2018-05-04T08:29:53Z</time>
      </trkpt>
      <trkpt lat="45.12075" lon="5.89475">
        <ele>2004.49</ele>
        <time>2018-05-04T08:30:09Z</time>
      </trkpt>
      <trkpt lat="45.12072" lon="5.89489">
        <ele>2006.41</ele>
        <time>2018-05-04T08:30:22Z</time>
      </trkpt>
      <trkpt lat="45.1207" lon="5.89502">
        <ele>2009.77</ele>
        <time>2018-05-04T08:30:36Z</time>
      </trkpt>
      <trkpt lat="45.12066" lon="5.89512">
        <ele>2012.66</ele>
        <time>2018-05-04T08:30:50Z</time>
      </trkpt>
      <trkpt lat="45.12062" lon="5.89522">
        <ele>2015.06</ele>
        <time>2018-05-04T08:31:03Z</time>
      </trkpt>
      <trkpt lat="45.12058" lon="5.89528">
        <ele>2017.46</ele>
        <time>2018-05-04T08:31:14Z</time>
      </trkpt>
      <trkpt lat="45.12055" lon="5.89538">
        <ele>2019.87</ele>
        <time>2018-05-04T08:31:25Z</time>
      </trkpt>
      <trkpt lat="45.12052" lon="5.89543">
        <ele>2021.31</ele>
        <time>2018-05-04T08:31:31Z</time>
      </trkpt>
      <trkpt lat="45.12046" lon="5.89555">
        <ele>2023.71</ele>
        <time>2018-05-04T08:31:46Z</time>
      </trkpt>
      <trkpt lat="45.12039" lon="5.89565">
        <ele>2027.08</ele>
        <time>2018-05-04T08:32:00Z</time>
      </trkpt>
      <trkpt lat="45.1203" lon="5.89571">
        <ele>2029.96</ele>
        <time>2018-05-04T08:32:14Z</time>
      </trkpt>
      <trkpt lat="45.12023" lon="5.89576">
        <ele>2032.84</ele>
        <time>2018-05-04T08:32:28Z</time>
      </trkpt>
      <trkpt lat="45.12015" lon="5.8958">
        <ele>2036.21</ele>
        <time>2018-05-04T08:32:43Z</time>
      </trkpt>
      <trkpt lat="45.12014" lon="5.89587">
        <ele>2038.13</ele>
        <time>2018-05-04T08:32:54Z</time>
      </trkpt>
      <trkpt lat="45.12017" lon="5.89596">
        <ele>2040.54</ele>
        <time>2018-05-04T08:33:06Z</time>
      </trkpt>
      <trkpt lat="45.12019" lon="5.89602">
        <ele>2042.46</ele>
        <time>2018-05-04T08:33:18Z</time>
      </trkpt>
      <trkpt lat="45.12021" lon="5.8961">
        <ele>2045.34</ele>
        <time>2018-05-04T08:33:31Z</time>
      </trkpt>
      <trkpt lat="45.1202" lon="5.89612">
        <ele>2046.78</ele>
        <time>2018-05-04T08:33:35Z</time>
      </trkpt>
      <trkpt lat="45.12019" lon="5.89613">
        <ele>2045.82</ele>
        <time>2018-05-04T08:33:37Z</time>
      </trkpt>
      <trkpt lat="45.12014" lon="5.89616">
        <ele>2048.23</ele>
        <time>2018-05-04T08:33:51Z</time>
      </trkpt>
      <trkpt lat="45.12005" lon="5.8962">
        <ele>2051.11</ele>
        <time>2018-05-04T08:34:09Z</time>
      </trkpt>
      <trkpt lat="45.11998" lon="5.89621">
        <ele>2054.47</ele>
        <time>2018-05-04T08:34:21Z</time>
      </trkpt>
      <trkpt lat="45.11999" lon="5.89625">
        <ele>2054.96</ele>
        <time>2018-05-04T08:34:30Z</time>
      </trkpt>
      <trkpt lat="45.12001" lon="5.89633">
        <ele>2056.88</ele>
        <time>2018-05-04T08:34:42Z</time>
      </trkpt>
      <trkpt lat="45.12003" lon="5.89638">
        <ele>2058.8</ele>
        <time>2018-05-04T08:34:56Z</time>
      </trkpt>
      <trkpt lat="45.12008" lon="5.89643">
        <ele>2060.72</ele>
        <time>2018-05-04T08:35:09Z</time>
      </trkpt>
      <trkpt lat="45.12007" lon="5.89644">
        <ele>2061.2</ele>
        <time>2018-05-04T08:35:11Z</time>
      </trkpt>
      <trkpt lat="45.12002" lon="5.8965">
        <ele>2063.13</ele>
        <time>2018-05-04T08:35:25Z</time>
      </trkpt>
      <trkpt lat="45.11995" lon="5.89651">
        <ele>2065.53</ele>
        <time>2018-05-04T08:35:37Z</time>
      </trkpt>
      <trkpt lat="45.11992" lon="5.89657">
        <ele>2066.97</ele>
        <time>2018-05-04T08:35:47Z</time>
      </trkpt>
      <trkpt lat="45.11998" lon="5.89667">
        <ele>2069.86</ele>
        <time>2018-05-04T08:36:02Z</time>
      </trkpt>
      <trkpt lat="45.12004" lon="5.89675">
        <ele>2071.78</ele>
        <time>2018-05-04T08:36:14Z</time>
      </trkpt>
      <trkpt lat="45.12009" lon="5.89679">
        <ele>2074.66</ele>
        <time>2018-05-04T08:36:27Z</time>
      </trkpt>
      <trkpt lat="45.12015" lon="5.89684">
        <ele>2077.07</ele>
        <time>2018-05-04T08:36:40Z</time>
      </trkpt>
      <trkpt lat="45.12022" lon="5.8969">
        <ele>2079.47</ele>
        <time>2018-05-04T08:36:52Z</time>
      </trkpt>
      <trkpt lat="45.12028" lon="5.89693">
        <ele>2082.35</ele>
        <time>2018-05-04T08:37:04Z</time>
      </trkpt>
      <trkpt lat="45.12034" lon="5.89697">
        <ele>2084.28</ele>
        <time>2018-05-04T08:37:15Z</time>
      </trkpt>
      <trkpt lat="45.12037" lon="5.89703">
        <ele>2086.68</ele>
        <time>2018-05-04T08:37:26Z</time>
      </trkpt>
      <trkpt lat="45.12042" lon="5.89707">
        <ele>2089.56</ele>
        <time>2018-05-04T08:37:38Z</time>
      </trkpt>
      <trkpt lat="45.12049" lon="5.89714">
        <ele>2092.45</ele>
        <time>2018-05-04T08:37:52Z</time>
      </trkpt>
      <trkpt lat="45.12051" lon="5.89724">
        <ele>2094.85</ele>
        <time>2018-05-04T08:38:04Z</time>
      </trkpt>
      <trkpt lat="45.12053" lon="5.89735">
        <ele>2097.73</ele>
        <time>2018-05-04T08:38:18Z</time>
      </trkpt>
      <trkpt lat="45.12055" lon="5.8974">
        <ele>2100.14</ele>
        <time>2018-05-04T08:38:29Z</time>
      </trkpt>
      <trkpt lat="45.1206" lon="5.89749">
        <ele>2103.02</ele>
        <time>2018-05-04T08:38:43Z</time>
      </trkpt>
      <trkpt lat="45.12064" lon="5.89755">
        <ele>2104.46</ele>
        <time>2018-05-04T08:38:54Z</time>
      </trkpt>
      <trkpt lat="45.12068" lon="5.89762">
        <ele>2106.39</ele>
        <time>2018-05-04T08:39:03Z</time>
      </trkpt>
      <trkpt lat="45.12073" lon="5.89775">
        <ele>2109.75</ele>
        <time>2018-05-04T08:39:18Z</time>
      </trkpt>
      <trkpt lat="45.12077" lon="5.89786">
        <ele>2112.15</ele>
        <time>2018-05-04T08:39:31Z</time>
      </trkpt>
      <trkpt lat="45.12082" lon="5.898">
        <ele>2114.56</ele>
        <time>2018-05-04T08:39:45Z</time>
      </trkpt>
      <trkpt lat="45.12087" lon="5.89814">
        <ele>2116.48</ele>
        <time>2018-05-04T08:39:59Z</time>
      </trkpt>
      <trkpt lat="45.12089" lon="5.89819">
        <ele>2116.96</ele>
        <time>2018-05-04T08:40:04Z</time>
      </trkpt>
      <trkpt lat="45.12093" lon="5.89833">
        <ele>2119.84</ele>
        <time>2018-05-04T08:40:19Z</time>
      </trkpt>
      <trkpt lat="45.12097" lon="5.89846">
        <ele>2122.25</ele>
        <time>2018-05-04T08:40:33Z</time>
      </trkpt>
      <trkpt lat="45.12102" lon="5.89859">
        <ele>2125.13</ele>
        <time>2018-05-04T08:40:48Z</time>
      </trkpt>
      <trkpt lat="45.12106" lon="5.89869">
        <ele>2128.02</ele>
        <time>2018-05-04T08:41:02Z</time>
      </trkpt>
      <trkpt lat="45.1211" lon="5.89876">
        <ele>2130.42</ele>
        <time>2018-05-04T08:41:14Z</time>
      </trkpt>
      <trkpt lat="45.12114" lon="5.89883">
        <ele>2132.34</ele>
        <time>2018-05-04T08:41:24Z</time>
      </trkpt>
      <trkpt lat="45.12121" lon="5.89895">
        <ele>2135.23</ele>
        <time>2018-05-04T08:41:39Z</time>
      </trkpt>
      <trkpt lat="45.12127" lon="5.89905">
        <ele>2137.15</ele>
        <time>2018-05-04T08:41:53Z</time>
      </trkpt>
      <trkpt lat="45.12129" lon="5.89908">
        <ele>2137.63</ele>
        <time>2018-05-04T08:41:56Z</time>
      </trkpt>
      <trkpt lat="45.12139" lon="5.8992">
        <ele>2140.03</ele>
        <time>2018-05-04T08:42:12Z</time>
      </trkpt>
      <trkpt lat="45.12146" lon="5.89929">
        <ele>2142.44</ele>
        <time>2018-05-04T08:42:26Z</time>
      </trkpt>
      <trkpt lat="45.12155" lon="5.89939">
        <ele>2144.84</ele>
        <time>2018-05-04T08:42:42Z</time>
      </trkpt>
      <trkpt lat="45.12163" lon="5.89947">
        <ele>2147.72</ele>
        <time>2018-05-04T08:42:55Z</time>
      </trkpt>
      <trkpt lat="45.1217" lon="5.89954">
        <ele>2150.61</ele>
        <time>2018-05-04T08:43:09Z</time>
      </trkpt>
      <trkpt lat="45.12178" lon="5.89959">
        <ele>2153.49</ele>
        <time>2018-05-04T08:43:23Z</time>
      </trkpt>
      <trkpt lat="45.12182" lon="5.89961">
        <ele>2155.41</ele>
        <time>2018-05-04T08:43:34Z</time>
      </trkpt>
      <trkpt lat="45.12189" lon="5.89968">
        <ele>2157.82</ele>
        <time>2018-05-04T08:43:46Z</time>
      </trkpt>
      <trkpt lat="45.12196" lon="5.89977">
        <ele>2158.78</ele>
        <time>2018-05-04T08:44:00Z</time>
      </trkpt>
      <trkpt lat="45.12204" lon="5.89984">
        <ele>2161.18</ele>
        <time>2018-05-04T08:44:13Z</time>
      </trkpt>
      <trkpt lat="45.12214" lon="5.8999">
        <ele>2164.06</ele>
        <time>2018-05-04T08:44:28Z</time>
      </trkpt>
      <trkpt lat="45.12221" lon="5.89995">
        <ele>2166.47</ele>
        <time>2018-05-04T08:44:41Z</time>
      </trkpt>
      <trkpt lat="45.1223" lon="5.90001">
        <ele>2168.87</ele>
        <time>2018-05-04T08:44:56Z</time>
      </trkpt>
      <trkpt lat="45.12239" lon="5.90008">
        <ele>2171.76</ele>
        <time>2018-05-04T08:45:12Z</time>
      </trkpt>
      <trkpt lat="45.12249" lon="5.90015">
        <ele>2174.16</ele>
        <time>2018-05-04T08:45:26Z</time>
      </trkpt>
      <trkpt lat="45.12259" lon="5.90021">
        <ele>2176.08</ele>
        <time>2018-05-04T08:45:41Z</time>
      </trkpt>
      <trkpt lat="45.12269" lon="5.90028">
        <ele>2178.97</ele>
        <time>2018-05-04T08:45:55Z</time>
      </trkpt>
      <trkpt lat="45.1228" lon="5.90035">
        <ele>2181.37</ele>
        <time>2018-05-04T08:46:09Z</time>
      </trkpt>
      <trkpt lat="45.12288" lon="5.90042">
        <ele>2182.33</ele>
        <time>2018-05-04T08:46:21Z</time>
      </trkpt>
      <trkpt lat="45.1229" lon="5.90044">
        <ele>2182.81</ele>
        <time>2018-05-04T08:46:23Z</time>
      </trkpt>
      <trkpt lat="45.12292" lon="5.90047">
        <ele>2183.77</ele>
        <time>2018-05-04T08:46:27Z</time>
      </trkpt>
      <trkpt lat="45.12297" lon="5.90051">
        <ele>2184.25</ele>
        <time>2018-05-04T08:46:33Z</time>
      </trkpt>
      <trkpt lat="45.12301" lon="5.90055">
        <ele>2185.21</ele>
        <time>2018-05-04T08:46:39Z</time>
      </trkpt>
      <trkpt lat="45.1231" lon="5.90065">
        <ele>2187.14</ele>
        <time>2018-05-04T08:46:54Z</time>
      </trkpt>
      <trkpt lat="45.12314" lon="5.90069">
        <ele>2187.14</ele>
        <time>2018-05-04T08:47:10Z</time>
      </trkpt>
      <trkpt lat="45.12324" lon="5.9008">
        <ele>2189.54</ele>
        <time>2018-05-04T08:47:24Z</time>
      </trkpt>
      <trkpt lat="45.12335" lon="5.90091">
        <ele>2191.46</ele>
        <time>2018-05-04T08:47:39Z</time>
      </trkpt>
      <trkpt lat="45.12345" lon="5.90102">
        <ele>2194.35</ele>
        <time>2018-05-04T08:47:54Z</time>
      </trkpt>
      <trkpt lat="45.12357" lon="5.90115">
        <ele>2196.75</ele>
        <time>2018-05-04T08:48:12Z</time>
      </trkpt>
      <trkpt lat="45.12364" lon="5.90123">
        <ele>2197.71</ele>
        <time>2018-05-04T08:48:21Z</time>
      </trkpt>
      <trkpt lat="45.12374" lon="5.90134">
        <ele>2200.11</ele>
        <time>2018-05-04T08:48:35Z</time>
      </trkpt>
      <trkpt lat="45.12383" lon="5.90146">
        <ele>2203</ele>
        <time>2018-05-04T08:48:51Z</time>
      </trkpt>
      <trkpt lat="45.12391" lon="5.90158">
        <ele>2204.92</ele>
        <time>2018-05-04T08:49:05Z</time>
      </trkpt>
      <trkpt lat="45.124" lon="5.90169">
        <ele>2207.32</ele>
        <time>2018-05-04T08:49:20Z</time>
      </trkpt>
      <trkpt lat="45.12408" lon="5.9018">
        <ele>2209.25</ele>
        <time>2018-05-04T08:49:34Z</time>
      </trkpt>
      <trkpt lat="45.12412" lon="5.90184">
        <ele>2210.21</ele>
        <time>2018-05-04T08:49:39Z</time>
      </trkpt>
      <trkpt lat="45.12416" lon="5.90189">
        <ele>2210.69</ele>
        <time>2018-05-04T08:49:44Z</time>
      </trkpt>
      <trkpt lat="45.12427" lon="5.90201">
        <ele>2212.13</ele>
        <time>2018-05-04T08:49:59Z</time>
      </trkpt>
      <trkpt lat="45.12431" lon="5.90204">
        <ele>2213.09</ele>
        <time>2018-05-04T08:50:13Z</time>
      </trkpt>
      <trkpt lat="45.12437" lon="5.90211">
        <ele>2214.53</ele>
        <time>2018-05-04T08:50:25Z</time>
      </trkpt>
      <trkpt lat="45.12445" lon="5.9022">
        <ele>2216.46</ele>
        <time>2018-05-04T08:50:39Z</time>
      </trkpt>
      <trkpt lat="45.12454" lon="5.90229">
        <ele>2218.38</ele>
        <time>2018-05-04T08:50:53Z</time>
      </trkpt>
      <trkpt lat="45.12463" lon="5.90239">
        <ele>2221.26</ele>
        <time>2018-05-04T08:51:08Z</time>
      </trkpt>
      <trkpt lat="45.12471" lon="5.9025">
        <ele>2224.63</ele>
        <time>2018-05-04T08:51:22Z</time>
      </trkpt>
      <trkpt lat="45.12477" lon="5.90262">
        <ele>2226.07</ele>
        <time>2018-05-04T08:51:36Z</time>
      </trkpt>
      <trkpt lat="45.12485" lon="5.90276">
        <ele>2227.51</ele>
        <time>2018-05-04T08:51:50Z</time>
      </trkpt>
      <trkpt lat="45.12486" lon="5.90279">
        <ele>2227.51</ele>
        <time>2018-05-04T08:51:53Z</time>
      </trkpt>
      <trkpt lat="45.12494" lon="5.90296">
        <ele>2228.95</ele>
        <time>2018-05-04T08:52:08Z</time>
      </trkpt>
      <trkpt lat="45.12497" lon="5.90306">
        <ele>2230.4</ele>
        <time>2018-05-04T08:52:16Z</time>
      </trkpt>
      <trkpt lat="45.12502" lon="5.90317">
        <ele>2231.36</ele>
        <time>2018-05-04T08:52:27Z</time>
      </trkpt>
      <trkpt lat="45.12507" lon="5.90335">
        <ele>2233.28</ele>
        <time>2018-05-04T08:52:42Z</time>
      </trkpt>
      <trkpt lat="45.12514" lon="5.90353">
        <ele>2235.68</ele>
        <time>2018-05-04T08:52:58Z</time>
      </trkpt>
      <trkpt lat="45.12515" lon="5.90356">
        <ele>2236.16</ele>
        <time>2018-05-04T08:53:01Z</time>
      </trkpt>
      <trkpt lat="45.12522" lon="5.90375">
        <ele>2237.61</ele>
        <time>2018-05-04T08:53:17Z</time>
      </trkpt>
      <trkpt lat="45.12532" lon="5.90399">
        <ele>2238.57</ele>
        <time>2018-05-04T08:53:34Z</time>
      </trkpt>
      <trkpt lat="45.12538" lon="5.90426">
        <ele>2240.49</ele>
        <time>2018-05-04T08:53:52Z</time>
      </trkpt>
      <trkpt lat="45.12543" lon="5.90441">
        <ele>2240.97</ele>
        <time>2018-05-04T08:54:02Z</time>
      </trkpt>
      <trkpt lat="45.12547" lon="5.90467">
        <ele>2241.93</ele>
        <time>2018-05-04T08:54:19Z</time>
      </trkpt>
      <trkpt lat="45.12548" lon="5.90471">
        <ele>2242.41</ele>
        <time>2018-05-04T08:54:23Z</time>
      </trkpt>
      <trkpt lat="45.1255" lon="5.90476">
        <ele>2242.89</ele>
        <time>2018-05-04T08:54:27Z</time>
      </trkpt>
      <trkpt lat="45.12551" lon="5.90481">
        <ele>2243.37</ele>
        <time>2018-05-04T08:54:30Z</time>
      </trkpt>
      <trkpt lat="45.12552" lon="5.90485">
        <ele>2243.85</ele>
        <time>2018-05-04T08:54:34Z</time>
      </trkpt>
      <trkpt lat="45.12556" lon="5.90491">
        <ele>2243.85</ele>
        <time>2018-05-04T08:54:40Z</time>
      </trkpt>
      <trkpt lat="45.1256" lon="5.90496">
        <ele>2243.85</ele>
        <time>2018-05-04T08:54:45Z</time>
      </trkpt>
      <trkpt lat="45.12563" lon="5.905">
        <ele>2243.85</ele>
        <time>2018-05-04T08:54:49Z</time>
      </trkpt>
      <trkpt lat="45.12579" lon="5.90512">
        <ele>2243.85</ele>
        <time>2018-05-04T08:55:04Z</time>
      </trkpt>
      <trkpt lat="45.12579" lon="5.90513">
        <ele>2243.85</ele>
        <time>2018-05-04T08:55:07Z</time>
      </trkpt>
      <trkpt lat="45.12586" lon="5.90522">
        <ele>2243.85</ele>
        <time>2018-05-04T08:55:12Z</time>
      </trkpt>
      <trkpt lat="45.12592" lon="5.90534">
        <ele>2240.97</ele>
        <time>2018-05-04T08:55:16Z</time>
      </trkpt>
      <trkpt lat="45.126" lon="5.90554">
        <ele>2238.57</ele>
        <time>2018-05-04T08:55:21Z</time>
      </trkpt>
      <trkpt lat="45.12606" lon="5.90576">
        <ele>2235.2</ele>
        <time>2018-05-04T08:55:26Z</time>
      </trkpt>
      <trkpt lat="45.12613" lon="5.90599">
        <ele>2231.36</ele>
        <time>2018-05-04T08:55:31Z</time>
      </trkpt>
      <trkpt lat="45.12619" lon="5.90619">
        <ele>2227.51</ele>
        <time>2018-05-04T08:55:34Z</time>
      </trkpt>
      <trkpt lat="45.12624" lon="5.90634">
        <ele>2224.63</ele>
        <time>2018-05-04T08:55:36Z</time>
      </trkpt>
      <trkpt lat="45.1263" lon="5.9065">
        <ele>2221.26</ele>
        <time>2018-05-04T08:55:38Z</time>
      </trkpt>
      <trkpt lat="45.12636" lon="5.90668">
        <ele>2217.42</ele>
        <time>2018-05-04T08:55:40Z</time>
      </trkpt>
      <trkpt lat="45.12644" lon="5.90687">
        <ele>2213.57</ele>
        <time>2018-05-04T08:55:42Z</time>
      </trkpt>
      <trkpt lat="45.12649" lon="5.90696">
        <ele>2211.17</ele>
        <time>2018-05-04T08:55:43Z</time>
      </trkpt>
      <trkpt lat="45.12667" lon="5.90719">
        <ele>2203</ele>
        <time>2018-05-04T08:55:46Z</time>
      </trkpt>
      <trkpt lat="45.12677" lon="5.90727">
        <ele>2199.63</ele>
        <time>2018-05-04T08:55:48Z</time>
      </trkpt>
      <trkpt lat="45.12688" lon="5.90733">
        <ele>2196.27</ele>
        <time>2018-05-04T08:55:49Z</time>
      </trkpt>
      <trkpt lat="45.12699" lon="5.90741">
        <ele>2192.9</ele>
        <time>2018-05-04T08:55:51Z</time>
      </trkpt>
      <trkpt lat="45.12711" lon="5.9075">
        <ele>2189.54</ele>
        <time>2018-05-04T08:55:53Z</time>
      </trkpt>
      <trkpt lat="45.12713" lon="5.9075">
        <ele>2189.54</ele>
        <time>2018-05-04T08:55:54Z</time>
      </trkpt>
      <trkpt lat="45.12715" lon="5.90749">
        <ele>2190.02</ele>
        <time>2018-05-04T08:56:03Z</time>
      </trkpt>
      <trkpt lat="45.12718" lon="5.90751">
        <ele>2190.5</ele>
        <time>2018-05-04T08:56:15Z</time>
      </trkpt>
      <trkpt lat="45.12723" lon="5.90754">
        <ele>2190.5</ele>
        <time>2018-05-04T08:56:20Z</time>
      </trkpt>
      <trkpt lat="45.12729" lon="5.9076">
        <ele>2190.5</ele>
        <time>2018-05-04T08:56:28Z</time>
      </trkpt>
      <trkpt lat="45.12733" lon="5.90766">
        <ele>2191.46</ele>
        <time>2018-05-04T08:56:34Z</time>
      </trkpt>
      <trkpt lat="45.12736" lon="5.9077">
        <ele>2190.02</ele>
        <time>2018-05-04T08:56:37Z</time>
      </trkpt>
      <trkpt lat="45.12745" lon="5.90771">
        <ele>2189.54</ele>
        <time>2018-05-04T08:56:50Z</time>
      </trkpt>
      <trkpt lat="45.12748" lon="5.90771">
        <ele>2190.98</ele>
        <time>2018-05-04T08:56:53Z</time>
      </trkpt>
      <trkpt lat="45.12749" lon="5.90771">
        <ele>2191.94</ele>
        <time>2018-05-04T08:57:11Z</time>
      </trkpt>
      <trkpt lat="45.12755" lon="5.90771">
        <ele>2193.87</ele>
        <time>2018-05-04T08:57:23Z</time>
      </trkpt>
      <trkpt lat="45.12759" lon="5.90771">
        <ele>2194.83</ele>
        <time>2018-05-04T08:57:34Z</time>
      </trkpt>
      <trkpt lat="45.12767" lon="5.90772">
        <ele>2196.27</ele>
        <time>2018-05-04T08:57:46Z</time>
      </trkpt>
      <trkpt lat="45.12776" lon="5.90773">
        <ele>2198.67</ele>
        <time>2018-05-04T08:58:00Z</time>
      </trkpt>
      <trkpt lat="45.12784" lon="5.90771">
        <ele>2201.08</ele>
        <time>2018-05-04T08:58:12Z</time>
      </trkpt>
      <trkpt lat="45.12793" lon="5.90774">
        <ele>2203.48</ele>
        <time>2018-05-04T08:58:26Z</time>
      </trkpt>
      <trkpt lat="45.12803" lon="5.90776">
        <ele>2205.4</ele>
        <time>2018-05-04T08:58:40Z</time>
      </trkpt>
      <trkpt lat="45.12805" lon="5.90778">
        <ele>2205.88</ele>
        <time>2018-05-04T08:58:43Z</time>
      </trkpt>
      <trkpt lat="45.12813" lon="5.90783">
        <ele>2205.88</ele>
        <time>2018-05-04T08:58:53Z</time>
      </trkpt>
      <trkpt lat="45.12829" lon="5.90789">
        <ele>2208.29</ele>
        <time>2018-05-04T08:59:07Z</time>
      </trkpt>
      <trkpt lat="45.12843" lon="5.90793">
        <ele>2209.25</ele>
        <time>2018-05-04T08:59:21Z</time>
      </trkpt>
      <trkpt lat="45.12848" lon="5.90795">
        <ele>2209.73</ele>
        <time>2018-05-04T08:59:27Z</time>
      </trkpt>
      <trkpt lat="45.12854" lon="5.90798">
        <ele>2210.21</ele>
        <time>2018-05-04T08:59:32Z</time>
      </trkpt>
      <trkpt lat="45.12862" lon="5.908">
        <ele>2210.21</ele>
        <time>2018-05-04T08:59:39Z</time>
      </trkpt>
      <trkpt lat="45.12874" lon="5.90804">
        <ele>2211.17</ele>
        <time>2018-05-04T08:59:50Z</time>
      </trkpt>
      <trkpt lat="45.12882" lon="5.90808">
        <ele>2211.65</ele>
        <time>2018-05-04T08:59:56Z</time>
      </trkpt>
      <trkpt lat="45.12903" lon="5.90818">
        <ele>2212.13</ele>
        <time>2018-05-04T09:00:12Z</time>
      </trkpt>
      <trkpt lat="45.12921" lon="5.90827">
        <ele>2212.13</ele>
        <time>2018-05-04T09:00:26Z</time>
      </trkpt>
      <trkpt lat="45.12928" lon="5.90828">
        <ele>2212.13</ele>
        <time>2018-05-04T09:00:32Z</time>
      </trkpt>
      <trkpt lat="45.12937" lon="5.90831">
        <ele>2213.09</ele>
        <time>2018-05-04T09:00:40Z</time>
      </trkpt>
      <trkpt lat="45.12949" lon="5.90833">
        <ele>2214.05</ele>
        <time>2018-05-04T09:00:50Z</time>
      </trkpt>
      <trkpt lat="45.12959" lon="5.90836">
        <ele>2215.01</ele>
        <time>2018-05-04T09:00:58Z</time>
      </trkpt>
      <trkpt lat="45.12964" lon="5.90838">
        <ele>2215.5</ele>
        <time>2018-05-04T09:01:03Z</time>
      </trkpt>
      <trkpt lat="45.12967" lon="5.9084">
        <ele>2215.5</ele>
        <time>2018-05-04T09:01:08Z</time>
      </trkpt>
      <trkpt lat="45.12969" lon="5.9084">
        <ele>2215.5</ele>
        <time>2018-05-04T09:01:26Z</time>
      </trkpt>
      <trkpt lat="45.12968" lon="5.9084">
        <ele>2215.98</ele>
        <time>2018-05-04T09:01:45Z</time>
      </trkpt>
      <trkpt lat="45.12966" lon="5.90838">
        <ele>2214.05</ele>
        <time>2018-05-04T09:01:58Z</time>
      </trkpt>
      <trkpt lat="45.12966" lon="5.90838">
        <ele>2213.09</ele>
        <time>2018-05-04T09:02:00Z</time>
      </trkpt>
      <trkpt lat="45.12968" lon="5.90837">
        <ele>2213.57</ele>
        <time>2018-05-04T09:02:40Z</time>
      </trkpt>
      <trkpt lat="45.12968" lon="5.90837">
        <ele>2213.57</ele>
        <time>2018-05-04T09:03:21Z</time>
      </trkpt>
      <trkpt lat="45.12967" lon="5.90838">
        <ele>2205.88</ele>
        <time>2018-05-04T09:03:45Z</time>
      </trkpt>
      <trkpt lat="45.12967" lon="5.90838">
        <ele>2213.09</ele>
        <time>2018-05-04T09:03:46Z</time>
      </trkpt>
      <trkpt lat="45.12967" lon="5.90838">
        <ele>2216.46</ele>
        <time>2018-05-04T09:04:07Z</time>
      </trkpt>
      <trkpt lat="45.12967" lon="5.90838">
        <ele>2215.01</ele>
        <time>2018-05-04T09:04:08Z</time>
      </trkpt>
      <trkpt lat="45.12966" lon="5.90837">
        <ele>2211.17</ele>
        <time>2018-05-04T09:04:10Z</time>
      </trkpt>
      <trkpt lat="45.12966" lon="5.90838">
        <ele>2214.53</ele>
        <time>2018-05-04T09:04:13Z</time>
      </trkpt>
      <trkpt lat="45.12966" lon="5.90837">
        <ele>2213.57</ele>
        <time>2018-05-04T09:05:00Z</time>
      </trkpt>
      <trkpt lat="45.12969" lon="5.90838">
        <ele>2214.05</ele>
        <time>2018-05-04T09:05:32Z</time>
      </trkpt>
      <trkpt lat="45.12969" lon="5.90838">
        <ele>2214.05</ele>
        <time>2018-05-04T09:06:04Z</time>
      </trkpt>
      <trkpt lat="45.12968" lon="5.90838">
        <ele>2214.53</ele>
        <time>2018-05-04T09:06:46Z</time>
      </trkpt>
      <trkpt lat="45.12968" lon="5.90839">
        <ele>2214.53</ele>
        <time>2018-05-04T09:07:25Z</time>
      </trkpt>
      <trkpt lat="45.12968" lon="5.90839">
        <ele>2215.98</ele>
        <time>2018-05-04T09:07:33Z</time>
      </trkpt>
      <trkpt lat="45.12968" lon="5.90839">
        <ele>2212.13</ele>
        <time>2018-05-04T09:07:34Z</time>
      </trkpt>
      <trkpt lat="45.12968" lon="5.9084">
        <ele>2215.5</ele>
        <time>2018-05-04T09:07:36Z</time>
      </trkpt>
      <trkpt lat="45.12968" lon="5.9084">
        <ele>2214.05</ele>
        <time>2018-05-04T09:07:37Z</time>
      </trkpt>
      <trkpt lat="45.12968" lon="5.90838">
        <ele>2214.53</ele>
        <time>2018-05-04T09:07:43Z</time>
      </trkpt>
      <trkpt lat="45.12968" lon="5.90837">
        <ele>2214.53</ele>
        <time>2018-05-04T09:08:22Z</time>
      </trkpt>
      <trkpt lat="45.12967" lon="5.90838">
        <ele>2215.01</ele>
        <time>2018-05-04T09:09:07Z</time>
      </trkpt>
      <trkpt lat="45.12967" lon="5.90835">
        <ele>2215.98</ele>
        <time>2018-05-04T09:09:09Z</time>
      </trkpt>
      <trkpt lat="45.12968" lon="5.90838">
        <ele>2215.5</ele>
        <time>2018-05-04T09:09:22Z</time>
      </trkpt>
      <trkpt lat="45.1297" lon="5.9084">
        <ele>2215.5</ele>
        <time>2018-05-04T09:09:39Z</time>
      </trkpt>
      <trkpt lat="45.12971" lon="5.90841">
        <ele>2215.5</ele>
        <time>2018-05-04T09:10:06Z</time>
      </trkpt>
      <trkpt lat="45.1297" lon="5.90842">
        <ele>2215.5</ele>
        <time>2018-05-04T09:10:19Z</time>
      </trkpt>
      <trkpt lat="45.12968" lon="5.90853">
        <ele>2211.17</ele>
        <time>2018-05-04T09:10:23Z</time>
      </trkpt>
      <trkpt lat="45.12973" lon="5.90861">
        <ele>2207.81</ele>
        <time>2018-05-04T09:10:25Z</time>
      </trkpt>
      <trkpt lat="45.12974" lon="5.90865">
        <ele>2204.92</ele>
        <time>2018-05-04T09:10:26Z</time>
      </trkpt>
      <trkpt lat="45.12977" lon="5.90874">
        <ele>2201.56</ele>
        <time>2018-05-04T09:10:29Z</time>
      </trkpt>
      <trkpt lat="45.1298" lon="5.90874">
        <ele>2196.27</ele>
        <time>2018-05-04T09:10:31Z</time>
      </trkpt>
      <trkpt lat="45.12978" lon="5.90873">
        <ele>2196.75</ele>
        <time>2018-05-04T09:10:32Z</time>
      </trkpt>
      <trkpt lat="45.12975" lon="5.90868">
        <ele>2196.75</ele>
        <time>2018-05-04T09:10:47Z</time>
      </trkpt>
      <trkpt lat="45.12973" lon="5.90884">
        <ele>2192.42</ele>
        <time>2018-05-04T09:10:51Z</time>
      </trkpt>
      <trkpt lat="45.12973" lon="5.90887">
        <ele>2191.46</ele>
        <time>2018-05-04T09:10:52Z</time>
      </trkpt>
      <trkpt lat="45.12977" lon="5.9091">
        <ele>2181.37</ele>
        <time>2018-05-04T09:10:56Z</time>
      </trkpt>
      <trkpt lat="45.12975" lon="5.9092">
        <ele>2171.27</ele>
        <time>2018-05-04T09:11:00Z</time>
      </trkpt>
      <trkpt lat="45.12975" lon="5.90922">
        <ele>2169.83</ele>
        <time>2018-05-04T09:11:02Z</time>
      </trkpt>
      <trkpt lat="45.12974" lon="5.90915">
        <ele>2169.83</ele>
        <time>2018-05-04T09:11:12Z</time>
      </trkpt>
      <trkpt lat="45.12977" lon="5.90922">
        <ele>2167.43</ele>
        <time>2018-05-04T09:11:15Z</time>
      </trkpt>
      <trkpt lat="45.12979" lon="5.90937">
        <ele>2162.62</ele>
        <time>2018-05-04T09:11:18Z</time>
      </trkpt>
      <trkpt lat="45.12979" lon="5.90943">
        <ele>2159.26</ele>
        <time>2018-05-04T09:11:19Z</time>
      </trkpt>
      <trkpt lat="45.12977" lon="5.90949">
        <ele>2150.61</ele>
        <time>2018-05-04T09:11:20Z</time>
      </trkpt>
      <trkpt lat="45.12977" lon="5.90953">
        <ele>2150.61</ele>
        <time>2018-05-04T09:11:21Z</time>
      </trkpt>
      <trkpt lat="45.12982" lon="5.90963">
        <ele>2146.28</ele>
        <time>2018-05-04T09:11:23Z</time>
      </trkpt>
      <trkpt lat="45.12984" lon="5.9097">
        <ele>2141.95</ele>
        <time>2018-05-04T09:11:25Z</time>
      </trkpt>
      <trkpt lat="45.12983" lon="5.90972">
        <ele>2139.07</ele>
        <time>2018-05-04T09:11:26Z</time>
      </trkpt>
      <trkpt lat="45.12973" lon="5.90964">
        <ele>2135.71</ele>
        <time>2018-05-04T09:11:32Z</time>
      </trkpt>
      <trkpt lat="45.12967" lon="5.90973">
        <ele>2132.34</ele>
        <time>2018-05-04T09:11:35Z</time>
      </trkpt>
      <trkpt lat="45.12958" lon="5.90974">
        <ele>2129.94</ele>
        <time>2018-05-04T09:11:43Z</time>
      </trkpt>
      <trkpt lat="45.12951" lon="5.90966">
        <ele>2129.46</ele>
        <time>2018-05-04T09:12:08Z</time>
      </trkpt>
      <trkpt lat="45.12955" lon="5.90964">
        <ele>2129.46</ele>
        <time>2018-05-04T09:12:28Z</time>
      </trkpt>
      <trkpt lat="45.12956" lon="5.90964">
        <ele>2129.46</ele>
        <time>2018-05-04T09:12:51Z</time>
      </trkpt>
      <trkpt lat="45.12956" lon="5.90983">
        <ele>2126.09</ele>
        <time>2018-05-04T09:12:55Z</time>
      </trkpt>
      <trkpt lat="45.12962" lon="5.91004">
        <ele>2118.4</ele>
        <time>2018-05-04T09:12:57Z</time>
      </trkpt>
      <trkpt lat="45.1296" lon="5.91014">
        <ele>2113.12</ele>
        <time>2018-05-04T09:12:58Z</time>
      </trkpt>
      <trkpt lat="45.12955" lon="5.91025">
        <ele>2108.31</ele>
        <time>2018-05-04T09:12:59Z</time>
      </trkpt>
      <trkpt lat="45.12947" lon="5.91035">
        <ele>2103.5</ele>
        <time>2018-05-04T09:13:00Z</time>
      </trkpt>
      <trkpt lat="45.12939" lon="5.91045">
        <ele>2099.66</ele>
        <time>2018-05-04T09:13:01Z</time>
      </trkpt>
      <trkpt lat="45.12933" lon="5.91058">
        <ele>2095.33</ele>
        <time>2018-05-04T09:13:02Z</time>
      </trkpt>
      <trkpt lat="45.12925" lon="5.91088">
        <ele>2078.51</ele>
        <time>2018-05-04T09:13:04Z</time>
      </trkpt>
      <trkpt lat="45.12921" lon="5.91102">
        <ele>2073.22</ele>
        <time>2018-05-04T09:13:05Z</time>
      </trkpt>
      <trkpt lat="45.12911" lon="5.91124">
        <ele>2069.86</ele>
        <time>2018-05-04T09:13:06Z</time>
      </trkpt>
      <trkpt lat="45.12909" lon="5.9113">
        <ele>2070.82</ele>
        <time>2018-05-04T09:13:07Z</time>
      </trkpt>
      <trkpt lat="45.12905" lon="5.91146">
        <ele>2070.82</ele>
        <time>2018-05-04T09:13:08Z</time>
      </trkpt>
      <trkpt lat="45.1292" lon="5.91154">
        <ele>2066.97</ele>
        <time>2018-05-04T09:13:10Z</time>
      </trkpt>
      <trkpt lat="45.12923" lon="5.9116">
        <ele>2068.41</ele>
        <time>2018-05-04T09:13:11Z</time>
      </trkpt>
      <trkpt lat="45.12941" lon="5.91177">
        <ele>2061.2</ele>
        <time>2018-05-04T09:13:14Z</time>
      </trkpt>
      <trkpt lat="45.12951" lon="5.9119">
        <ele>2054.96</ele>
        <time>2018-05-04T09:13:16Z</time>
      </trkpt>
      <trkpt lat="45.12955" lon="5.91212">
        <ele>2050.63</ele>
        <time>2018-05-04T09:13:17Z</time>
      </trkpt>
      <trkpt lat="45.12964" lon="5.91246">
        <ele>2046.78</ele>
        <time>2018-05-04T09:13:20Z</time>
      </trkpt>
      <trkpt lat="45.12974" lon="5.91277">
        <ele>2042.46</ele>
        <time>2018-05-04T09:13:25Z</time>
      </trkpt>
      <trkpt lat="45.12979" lon="5.913">
        <ele>2039.09</ele>
        <time>2018-05-04T09:13:28Z</time>
      </trkpt>
      <trkpt lat="45.12985" lon="5.91322">
        <ele>2035.25</ele>
        <time>2018-05-04T09:13:31Z</time>
      </trkpt>
      <trkpt lat="45.12992" lon="5.91345">
        <ele>2031.4</ele>
        <time>2018-05-04T09:13:34Z</time>
      </trkpt>
      <trkpt lat="45.12993" lon="5.91348">
        <ele>2031.88</ele>
        <time>2018-05-04T09:13:35Z</time>
      </trkpt>
      <trkpt lat="45.12998" lon="5.91367">
        <ele>2030.44</ele>
        <time>2018-05-04T09:13:48Z</time>
      </trkpt>
      <trkpt lat="45.13004" lon="5.91397">
        <ele>2027.08</ele>
        <time>2018-05-04T09:13:56Z</time>
      </trkpt>
      <trkpt lat="45.13006" lon="5.91402">
        <ele>2026.12</ele>
        <time>2018-05-04T09:13:57Z</time>
      </trkpt>
      <trkpt lat="45.13011" lon="5.91438">
        <ele>2022.27</ele>
        <time>2018-05-04T09:14:03Z</time>
      </trkpt>
      <trkpt lat="45.13012" lon="5.91445">
        <ele>2021.79</ele>
        <time>2018-05-04T09:14:04Z</time>
      </trkpt>
      <trkpt lat="45.13019" lon="5.91477">
        <ele>2017.94</ele>
        <time>2018-05-04T09:14:12Z</time>
      </trkpt>
      <trkpt lat="45.13032" lon="5.91523">
        <ele>2015.54</ele>
        <time>2018-05-04T09:14:29Z</time>
      </trkpt>
      <trkpt lat="45.13039" lon="5.91538">
        <ele>2015.06</ele>
        <time>2018-05-04T09:14:44Z</time>
      </trkpt>
      <trkpt lat="45.13038" lon="5.91539">
        <ele>2015.06</ele>
        <time>2018-05-04T09:14:59Z</time>
      </trkpt>
      <trkpt lat="45.13038" lon="5.91536">
        <ele>2011.22</ele>
        <time>2018-05-04T09:15:13Z</time>
      </trkpt>
      <trkpt lat="45.13038" lon="5.91536">
        <ele>2014.58</ele>
        <time>2018-05-04T09:15:14Z</time>
      </trkpt>
      <trkpt lat="45.13037" lon="5.91539">
        <ele>2014.1</ele>
        <time>2018-05-04T09:15:42Z</time>
      </trkpt>
      <trkpt lat="45.13036" lon="5.91538">
        <ele>2014.1</ele>
        <time>2018-05-04T09:15:43Z</time>
      </trkpt>
      <trkpt lat="45.13036" lon="5.91534">
        <ele>2014.1</ele>
        <time>2018-05-04T09:16:01Z</time>
      </trkpt>
      <trkpt lat="45.13036" lon="5.91535">
        <ele>2014.1</ele>
        <time>2018-05-04T09:16:44Z</time>
      </trkpt>
      <trkpt lat="45.13037" lon="5.91536">
        <ele>2014.1</ele>
        <time>2018-05-04T09:17:30Z</time>
      </trkpt>
      <trkpt lat="45.13037" lon="5.91537">
        <ele>2014.1</ele>
        <time>2018-05-04T09:18:01Z</time>
      </trkpt>
      <trkpt lat="45.13037" lon="5.91536">
        <ele>2014.1</ele>
        <time>2018-05-04T09:18:29Z</time>
      </trkpt>
      <trkpt lat="45.13037" lon="5.91537">
        <ele>2018.91</ele>
        <time>2018-05-04T09:18:54Z</time>
      </trkpt>
      <trkpt lat="45.13038" lon="5.91537">
        <ele>2014.58</ele>
        <time>2018-05-04T09:18:55Z</time>
      </trkpt>
      <trkpt lat="45.13037" lon="5.91537">
        <ele>2014.1</ele>
        <time>2018-05-04T09:18:57Z</time>
      </trkpt>
      <trkpt lat="45.13037" lon="5.91537">
        <ele>2001.12</ele>
        <time>2018-05-04T09:19:08Z</time>
      </trkpt>
      <trkpt lat="45.13037" lon="5.91537">
        <ele>2012.66</ele>
        <time>2018-05-04T09:19:09Z</time>
      </trkpt>
      <trkpt lat="45.13037" lon="5.91537">
        <ele>2008.81</ele>
        <time>2018-05-04T09:19:10Z</time>
      </trkpt>
      <trkpt lat="45.13036" lon="5.91537">
        <ele>2013.14</ele>
        <time>2018-05-04T09:19:12Z</time>
      </trkpt>
      <trkpt lat="45.13036" lon="5.91537">
        <ele>2013.14</ele>
        <time>2018-05-04T09:19:13Z</time>
      </trkpt>
      <trkpt lat="45.13038" lon="5.91537">
        <ele>2013.62</ele>
        <time>2018-05-04T09:19:36Z</time>
      </trkpt>
      <trkpt lat="45.13037" lon="5.91536">
        <ele>2010.25</ele>
        <time>2018-05-04T09:20:15Z</time>
      </trkpt>
      <trkpt lat="45.13037" lon="5.91536">
        <ele>2014.58</ele>
        <time>2018-05-04T09:20:16Z</time>
      </trkpt>
      <trkpt lat="45.13037" lon="5.91536">
        <ele>2014.58</ele>
        <time>2018-05-04T09:20:17Z</time>
      </trkpt>
      <trkpt lat="45.13037" lon="5.91536">
        <ele>2011.22</ele>
        <time>2018-05-04T09:20:18Z</time>
      </trkpt>
      <trkpt lat="45.13037" lon="5.91536">
        <ele>2012.18</ele>
        <time>2018-05-04T09:20:19Z</time>
      </trkpt>
      <trkpt lat="45.13036" lon="5.91535">
        <ele>2011.22</ele>
        <time>2018-05-04T09:20:26Z</time>
      </trkpt>
      <trkpt lat="45.13036" lon="5.91535">
        <ele>2013.14</ele>
        <time>2018-05-04T09:20:28Z</time>
      </trkpt>
      <trkpt lat="45.13035" lon="5.91536">
        <ele>2015.06</ele>
        <time>2018-05-04T09:20:40Z</time>
      </trkpt>
      <trkpt lat="45.13034" lon="5.91535">
        <ele>2010.25</ele>
        <time>2018-05-04T09:20:47Z</time>
      </trkpt>
      <trkpt lat="45.13034" lon="5.91535">
        <ele>2014.58</ele>
        <time>2018-05-04T09:20:51Z</time>
      </trkpt>
      <trkpt lat="45.13034" lon="5.91535">
        <ele>2014.58</ele>
        <time>2018-05-04T09:20:52Z</time>
      </trkpt>
      <trkpt lat="45.13034" lon="5.91536">
        <ele>2014.58</ele>
        <time>2018-05-04T09:21:08Z</time>
      </trkpt>
      <trkpt lat="45.13032" lon="5.91539">
        <ele>2013.14</ele>
        <time>2018-05-04T09:21:38Z</time>
      </trkpt>
      <trkpt lat="45.13028" lon="5.91542">
        <ele>2013.14</ele>
        <time>2018-05-04T09:21:57Z</time>
      </trkpt>
      <trkpt lat="45.13027" lon="5.91545">
        <ele>2013.14</ele>
        <time>2018-05-04T09:22:00Z</time>
      </trkpt>
      <trkpt lat="45.13027" lon="5.91547">
        <ele>2013.14</ele>
        <time>2018-05-04T09:22:01Z</time>
      </trkpt>
      <trkpt lat="45.13026" lon="5.91549">
        <ele>2013.14</ele>
        <time>2018-05-04T09:22:02Z</time>
      </trkpt>
      <trkpt lat="45.13026" lon="5.91552">
        <ele>2013.14</ele>
        <time>2018-05-04T09:22:03Z</time>
      </trkpt>
      <trkpt lat="45.13026" lon="5.91554">
        <ele>2013.14</ele>
        <time>2018-05-04T09:22:04Z</time>
      </trkpt>
      <trkpt lat="45.13023" lon="5.91574">
        <ele>2013.14</ele>
        <time>2018-05-04T09:22:19Z</time>
      </trkpt>
      <trkpt lat="45.13023" lon="5.91575">
        <ele>2013.14</ele>
        <time>2018-05-04T09:22:20Z</time>
      </trkpt>
      <trkpt lat="45.13022" lon="5.91595">
        <ele>2014.1</ele>
        <time>2018-05-04T09:22:36Z</time>
      </trkpt>
      <trkpt lat="45.13022" lon="5.91613">
        <ele>2013.14</ele>
        <time>2018-05-04T09:22:46Z</time>
      </trkpt>
      <trkpt lat="45.13023" lon="5.91622">
        <ele>2012.66</ele>
        <time>2018-05-04T09:22:53Z</time>
      </trkpt>
      <trkpt lat="45.13018" lon="5.91647">
        <ele>2013.14</ele>
        <time>2018-05-04T09:23:10Z</time>
      </trkpt>
      <trkpt lat="45.13018" lon="5.9165">
        <ele>2014.1</ele>
        <time>2018-05-04T09:23:13Z</time>
      </trkpt>
      <trkpt lat="45.13016" lon="5.91658">
        <ele>2014.58</ele>
        <time>2018-05-04T09:23:19Z</time>
      </trkpt>
      <trkpt lat="45.13014" lon="5.91664">
        <ele>2015.06</ele>
        <time>2018-05-04T09:23:24Z</time>
      </trkpt>
      <trkpt lat="45.13012" lon="5.91671">
        <ele>2015.06</ele>
        <time>2018-05-04T09:23:29Z</time>
      </trkpt>
      <trkpt lat="45.1301" lon="5.91679">
        <ele>2015.54</ele>
        <time>2018-05-04T09:23:35Z</time>
      </trkpt>
      <trkpt lat="45.13007" lon="5.91686">
        <ele>2015.54</ele>
        <time>2018-05-04T09:23:40Z</time>
      </trkpt>
      <trkpt lat="45.13006" lon="5.91692">
        <ele>2016.02</ele>
        <time>2018-05-04T09:23:44Z</time>
      </trkpt>
      <trkpt lat="45.13004" lon="5.91699">
        <ele>2015.54</ele>
        <time>2018-05-04T09:23:50Z</time>
      </trkpt>
      <trkpt lat="45.13001" lon="5.91713">
        <ele>2016.02</ele>
        <time>2018-05-04T09:23:59Z</time>
      </trkpt>
      <trkpt lat="45.13" lon="5.91715">
        <ele>2016.02</ele>
        <time>2018-05-04T09:24:01Z</time>
      </trkpt>
      <trkpt lat="45.12999" lon="5.91718">
        <ele>2016.02</ele>
        <time>2018-05-04T09:24:03Z</time>
      </trkpt>
      <trkpt lat="45.12998" lon="5.91727">
        <ele>2016.02</ele>
        <time>2018-05-04T09:24:08Z</time>
      </trkpt>
      <trkpt lat="45.12996" lon="5.91734">
        <ele>2016.02</ele>
        <time>2018-05-04T09:24:13Z</time>
      </trkpt>
      <trkpt lat="45.12992" lon="5.9176">
        <ele>2017.46</ele>
        <time>2018-05-04T09:24:30Z</time>
      </trkpt>
      <trkpt lat="45.12989" lon="5.91773">
        <ele>2017.46</ele>
        <time>2018-05-04T09:24:39Z</time>
      </trkpt>
      <trkpt lat="45.12986" lon="5.91797">
        <ele>2017.94</ele>
        <time>2018-05-04T09:24:54Z</time>
      </trkpt>
      <trkpt lat="45.12986" lon="5.91822">
        <ele>2017.94</ele>
        <time>2018-05-04T09:25:07Z</time>
      </trkpt>
      <trkpt lat="45.12986" lon="5.91832">
        <ele>2018.43</ele>
        <time>2018-05-04T09:25:14Z</time>
      </trkpt>
      <trkpt lat="45.12987" lon="5.91853">
        <ele>2020.35</ele>
        <time>2018-05-04T09:25:29Z</time>
      </trkpt>
      <trkpt lat="45.1299" lon="5.91871">
        <ele>2022.75</ele>
        <time>2018-05-04T09:25:44Z</time>
      </trkpt>
      <trkpt lat="45.12992" lon="5.91876">
        <ele>2023.23</ele>
        <time>2018-05-04T09:25:48Z</time>
      </trkpt>
      <trkpt lat="45.12992" lon="5.91881">
        <ele>2024.19</ele>
        <time>2018-05-04T09:25:52Z</time>
      </trkpt>
      <trkpt lat="45.12998" lon="5.91898">
        <ele>2027.08</ele>
        <time>2018-05-04T09:26:07Z</time>
      </trkpt>
      <trkpt lat="45.13002" lon="5.91911">
        <ele>2029</ele>
        <time>2018-05-04T09:26:21Z</time>
      </trkpt>
      <trkpt lat="45.13005" lon="5.91916">
        <ele>2029.48</ele>
        <time>2018-05-04T09:26:28Z</time>
      </trkpt>
      <trkpt lat="45.13005" lon="5.91926">
        <ele>2030.92</ele>
        <time>2018-05-04T09:26:36Z</time>
      </trkpt>
      <trkpt lat="45.13003" lon="5.91935">
        <ele>2031.88</ele>
        <time>2018-05-04T09:26:43Z</time>
      </trkpt>
      <trkpt lat="45.13" lon="5.91938">
        <ele>2032.36</ele>
        <time>2018-05-04T09:26:47Z</time>
      </trkpt>
      <trkpt lat="45.12998" lon="5.91941">
        <ele>2033.33</ele>
        <time>2018-05-04T09:26:51Z</time>
      </trkpt>
      <trkpt lat="45.12996" lon="5.91946">
        <ele>2033.81</ele>
        <time>2018-05-04T09:26:57Z</time>
      </trkpt>
      <trkpt lat="45.12993" lon="5.9196">
        <ele>2036.69</ele>
        <time>2018-05-04T09:27:11Z</time>
      </trkpt>
      <trkpt lat="45.12992" lon="5.91976">
        <ele>2038.61</ele>
        <time>2018-05-04T09:27:24Z</time>
      </trkpt>
      <trkpt lat="45.12993" lon="5.91984">
        <ele>2038.61</ele>
        <time>2018-05-04T09:27:30Z</time>
      </trkpt>
      <trkpt lat="45.12997" lon="5.91994">
        <ele>2040.05</ele>
        <time>2018-05-04T09:27:39Z</time>
      </trkpt>
      <trkpt lat="45.13008" lon="5.92003">
        <ele>2042.94</ele>
        <time>2018-05-04T09:27:53Z</time>
      </trkpt>
      <trkpt lat="45.13018" lon="5.92012">
        <ele>2045.34</ele>
        <time>2018-05-04T09:28:09Z</time>
      </trkpt>
      <trkpt lat="45.1302" lon="5.92015">
        <ele>2046.3</ele>
        <time>2018-05-04T09:28:14Z</time>
      </trkpt>
      <trkpt lat="45.13025" lon="5.92023">
        <ele>2049.19</ele>
        <time>2018-05-04T09:28:28Z</time>
      </trkpt>
      <trkpt lat="45.13034" lon="5.92035">
        <ele>2051.59</ele>
        <time>2018-05-04T09:28:42Z</time>
      </trkpt>
      <trkpt lat="45.13037" lon="5.92045">
        <ele>2053.99</ele>
        <time>2018-05-04T09:28:55Z</time>
      </trkpt>
      <trkpt lat="45.13037" lon="5.92043">
        <ele>2054.96</ele>
        <time>2018-05-04T09:29:07Z</time>
      </trkpt>
      <trkpt lat="45.13024" lon="5.92049">
        <ele>2056.88</ele>
        <time>2018-05-04T09:29:18Z</time>
      </trkpt>
      <trkpt lat="45.13017" lon="5.92052">
        <ele>2059.28</ele>
        <time>2018-05-04T09:29:33Z</time>
      </trkpt>
      <trkpt lat="45.13009" lon="5.92052">
        <ele>2060.72</ele>
        <time>2018-05-04T09:29:46Z</time>
      </trkpt>
      <trkpt lat="45.1299" lon="5.92063">
        <ele>2064.09</ele>
        <time>2018-05-04T09:30:01Z</time>
      </trkpt>
      <trkpt lat="45.12988" lon="5.92064">
        <ele>2064.09</ele>
        <time>2018-05-04T09:30:04Z</time>
      </trkpt>
      <trkpt lat="45.12994" lon="5.92065">
        <ele>2065.05</ele>
        <time>2018-05-04T09:30:11Z</time>
      </trkpt>
      <trkpt lat="45.13005" lon="5.92071">
        <ele>2066.97</ele>
        <time>2018-05-04T09:30:26Z</time>
      </trkpt>
      <trkpt lat="45.13011" lon="5.92077">
        <ele>2068.89</ele>
        <time>2018-05-04T09:30:37Z</time>
      </trkpt>
      <trkpt lat="45.13014" lon="5.92083">
        <ele>2069.86</ele>
        <time>2018-05-04T09:30:48Z</time>
      </trkpt>
      <trkpt lat="45.13014" lon="5.92088">
        <ele>2071.3</ele>
        <time>2018-05-04T09:31:00Z</time>
      </trkpt>
      <trkpt lat="45.13017" lon="5.92094">
        <ele>2072.74</ele>
        <time>2018-05-04T09:31:11Z</time>
      </trkpt>
      <trkpt lat="45.13021" lon="5.92097">
        <ele>2073.7</ele>
        <time>2018-05-04T09:31:24Z</time>
      </trkpt>
      <trkpt lat="45.13028" lon="5.921">
        <ele>2075.14</ele>
        <time>2018-05-04T09:31:35Z</time>
      </trkpt>
      <trkpt lat="45.13029" lon="5.921">
        <ele>2075.14</ele>
        <time>2018-05-04T09:31:36Z</time>
      </trkpt>
      <trkpt lat="45.13031" lon="5.92099">
        <ele>2075.62</ele>
        <time>2018-05-04T09:31:41Z</time>
      </trkpt>
      <trkpt lat="45.13033" lon="5.92095">
        <ele>2075.62</ele>
        <time>2018-05-04T09:31:46Z</time>
      </trkpt>
      <trkpt lat="45.13027" lon="5.92094">
        <ele>2076.59</ele>
        <time>2018-05-04T09:31:58Z</time>
      </trkpt>
      <trkpt lat="45.13024" lon="5.9209">
        <ele>2078.51</ele>
        <time>2018-05-04T09:32:10Z</time>
      </trkpt>
      <trkpt lat="45.13017" lon="5.92089">
        <ele>2080.43</ele>
        <time>2018-05-04T09:32:22Z</time>
      </trkpt>
      <trkpt lat="45.13016" lon="5.92087">
        <ele>2081.87</ele>
        <time>2018-05-04T09:32:34Z</time>
      </trkpt>
      <trkpt lat="45.13009" lon="5.92092">
        <ele>2082.35</ele>
        <time>2018-05-04T09:32:47Z</time>
      </trkpt>
      <trkpt lat="45.13012" lon="5.92095">
        <ele>2083.31</ele>
        <time>2018-05-04T09:32:59Z</time>
      </trkpt>
      <trkpt lat="45.13015" lon="5.92098">
        <ele>2084.76</ele>
        <time>2018-05-04T09:33:10Z</time>
      </trkpt>
      <trkpt lat="45.13018" lon="5.92107">
        <ele>2086.68</ele>
        <time>2018-05-04T09:33:25Z</time>
      </trkpt>
      <trkpt lat="45.13009" lon="5.92104">
        <ele>2087.64</ele>
        <time>2018-05-04T09:33:40Z</time>
      </trkpt>
      <trkpt lat="45.13013" lon="5.92097">
        <ele>2088.6</ele>
        <time>2018-05-04T09:33:53Z</time>
      </trkpt>
      <trkpt lat="45.13018" lon="5.92095">
        <ele>2089.08</ele>
        <time>2018-05-04T09:34:16Z</time>
      </trkpt>
      <trkpt lat="45.1302" lon="5.92095">
        <ele>2089.56</ele>
        <time>2018-05-04T09:34:28Z</time>
      </trkpt>
      <trkpt lat="45.13019" lon="5.92094">
        <ele>2085.72</ele>
        <time>2018-05-04T09:34:32Z</time>
      </trkpt>
      <trkpt lat="45.13017" lon="5.92096">
        <ele>2085.72</ele>
        <time>2018-05-04T09:34:33Z</time>
      </trkpt>
      <trkpt lat="45.13015" lon="5.92098">
        <ele>2088.6</ele>
        <time>2018-05-04T09:34:35Z</time>
      </trkpt>
      <trkpt lat="45.13018" lon="5.92105">
        <ele>2088.6</ele>
        <time>2018-05-04T09:35:03Z</time>
      </trkpt>
      <trkpt lat="45.13016" lon="5.92111">
        <ele>2087.64</ele>
        <time>2018-05-04T09:35:29Z</time>
      </trkpt>
      <trkpt lat="45.13016" lon="5.9211">
        <ele>2089.08</ele>
        <time>2018-05-04T09:35:31Z</time>
      </trkpt>
      <trkpt lat="45.13016" lon="5.92104">
        <ele>2090.04</ele>
        <time>2018-05-04T09:35:44Z</time>
      </trkpt>
      <trkpt lat="45.13005" lon="5.92095">
        <ele>2090.04</ele>
        <time>2018-05-04T09:36:13Z</time>
      </trkpt>
      <trkpt lat="45.13003" lon="5.92097">
        <ele>2090.52</ele>
        <time>2018-05-04T09:36:25Z</time>
      </trkpt>
      <trkpt lat="45.13003" lon="5.92088">
        <ele>2091.49</ele>
        <time>2018-05-04T09:36:40Z</time>
      </trkpt>
      <trkpt lat="45.13002" lon="5.92086">
        <ele>2091.97</ele>
        <time>2018-05-04T09:36:53Z</time>
      </trkpt>
      <trkpt lat="45.13008" lon="5.92086">
        <ele>2091.97</ele>
        <time>2018-05-04T09:37:21Z</time>
      </trkpt>
      <trkpt lat="45.13011" lon="5.92095">
        <ele>2091.97</ele>
        <time>2018-05-04T09:37:47Z</time>
      </trkpt>
      <trkpt lat="45.13005" lon="5.92096">
        <ele>2092.93</ele>
        <time>2018-05-04T09:38:03Z</time>
      </trkpt>
      <trkpt lat="45.13004" lon="5.92096">
        <ele>2092.93</ele>
        <time>2018-05-04T09:38:06Z</time>
      </trkpt>
      <trkpt lat="45.13007" lon="5.92099">
        <ele>2094.85</ele>
        <time>2018-05-04T09:38:17Z</time>
      </trkpt>
      <trkpt lat="45.13012" lon="5.92108">
        <ele>2097.25</ele>
        <time>2018-05-04T09:38:33Z</time>
      </trkpt>
      <trkpt lat="45.13015" lon="5.92116">
        <ele>2098.7</ele>
        <time>2018-05-04T09:38:44Z</time>
      </trkpt>
      <trkpt lat="45.13013" lon="5.92116">
        <ele>2100.14</ele>
        <time>2018-05-04T09:38:56Z</time>
      </trkpt>
      <trkpt lat="45.13008" lon="5.92115">
        <ele>2101.1</ele>
        <time>2018-05-04T09:39:02Z</time>
      </trkpt>
      <trkpt lat="45.13002" lon="5.92112">
        <ele>2103.5</ele>
        <time>2018-05-04T09:39:15Z</time>
      </trkpt>
      <trkpt lat="45.13006" lon="5.92114">
        <ele>2103.98</ele>
        <time>2018-05-04T09:39:30Z</time>
      </trkpt>
      <trkpt lat="45.13004" lon="5.92119">
        <ele>2104.46</ele>
        <time>2018-05-04T09:39:42Z</time>
      </trkpt>
      <trkpt lat="45.13004" lon="5.9212">
        <ele>2104.46</ele>
        <time>2018-05-04T09:39:43Z</time>
      </trkpt>
      <trkpt lat="45.13001" lon="5.92132">
        <ele>2106.39</ele>
        <time>2018-05-04T09:39:59Z</time>
      </trkpt>
      <trkpt lat="45.13002" lon="5.92132">
        <ele>2106.39</ele>
        <time>2018-05-04T09:40:05Z</time>
      </trkpt>
      <trkpt lat="45.13007" lon="5.92129">
        <ele>2107.35</ele>
        <time>2018-05-04T09:40:19Z</time>
      </trkpt>
      <trkpt lat="45.13003" lon="5.92138">
        <ele>2107.35</ele>
        <time>2018-05-04T09:40:33Z</time>
      </trkpt>
      <trkpt lat="45.12999" lon="5.92147">
        <ele>2107.83</ele>
        <time>2018-05-04T09:40:54Z</time>
      </trkpt>
      <trkpt lat="45.13004" lon="5.92133">
        <ele>2107.83</ele>
        <time>2018-05-04T09:41:05Z</time>
      </trkpt>
      <trkpt lat="45.13011" lon="5.92128">
        <ele>2107.83</ele>
        <time>2018-05-04T09:41:22Z</time>
      </trkpt>
      <trkpt lat="45.13005" lon="5.92134">
        <ele>2106.87</ele>
        <time>2018-05-04T09:41:39Z</time>
      </trkpt>
      <trkpt lat="45.13005" lon="5.92132">
        <ele>2100.14</ele>
        <time>2018-05-04T09:41:41Z</time>
      </trkpt>
      <trkpt lat="45.13005" lon="5.92133">
        <ele>2108.31</ele>
        <time>2018-05-04T09:41:42Z</time>
      </trkpt>
      <trkpt lat="45.13006" lon="5.92131">
        <ele>2108.31</ele>
        <time>2018-05-04T09:41:43Z</time>
      </trkpt>
      <trkpt lat="45.13007" lon="5.92129">
        <ele>2106.39</ele>
        <time>2018-05-04T09:41:45Z</time>
      </trkpt>
      <trkpt lat="45.13001" lon="5.92137">
        <ele>2105.42</ele>
        <time>2018-05-04T09:42:08Z</time>
      </trkpt>
      <trkpt lat="45.12992" lon="5.92138">
        <ele>2104.94</ele>
        <time>2018-05-04T09:42:24Z</time>
      </trkpt>
      <trkpt lat="45.12993" lon="5.92135">
        <ele>2103.02</ele>
        <time>2018-05-04T09:42:29Z</time>
      </trkpt>
      <trkpt lat="45.12998" lon="5.9213">
        <ele>2110.23</ele>
        <time>2018-05-04T09:42:30Z</time>
      </trkpt>
      <trkpt lat="45.12997" lon="5.92131">
        <ele>2106.39</ele>
        <time>2018-05-04T09:42:31Z</time>
      </trkpt>
      <trkpt lat="45.12998" lon="5.92132">
        <ele>2102.06</ele>
        <time>2018-05-04T09:42:32Z</time>
      </trkpt>
      <trkpt lat="45.12998" lon="5.92133">
        <ele>2102.06</ele>
        <time>2018-05-04T09:42:33Z</time>
      </trkpt>
      <trkpt lat="45.12999" lon="5.92135">
        <ele>2105.42</ele>
        <time>2018-05-04T09:42:34Z</time>
      </trkpt>
      <trkpt lat="45.13002" lon="5.92142">
        <ele>2105.42</ele>
        <time>2018-05-04T09:43:01Z</time>
      </trkpt>
      <trkpt lat="45.13001" lon="5.92146">
        <ele>2106.87</ele>
        <time>2018-05-04T09:43:12Z</time>
      </trkpt>
      <trkpt lat="45.13001" lon="5.92146">
        <ele>2104.94</ele>
        <time>2018-05-04T09:43:13Z</time>
      </trkpt>
      <trkpt lat="45.13001" lon="5.92144">
        <ele>2105.42</ele>
        <time>2018-05-04T09:43:27Z</time>
      </trkpt>
      <trkpt lat="45.13" lon="5.92146">
        <ele>2106.39</ele>
        <time>2018-05-04T09:43:29Z</time>
      </trkpt>
      <trkpt lat="45.12987" lon="5.92167">
        <ele>2106.39</ele>
        <time>2018-05-04T09:43:45Z</time>
      </trkpt>
      <trkpt lat="45.1298" lon="5.9218">
        <ele>2106.39</ele>
        <time>2018-05-04T09:43:57Z</time>
      </trkpt>
      <trkpt lat="45.12984" lon="5.92173">
        <ele>2106.39</ele>
        <time>2018-05-04T09:44:11Z</time>
      </trkpt>
      <trkpt lat="45.12987" lon="5.9217">
        <ele>2107.35</ele>
        <time>2018-05-04T09:44:16Z</time>
      </trkpt>
      <trkpt lat="45.1299" lon="5.9217">
        <ele>2109.27</ele>
        <time>2018-05-04T09:44:30Z</time>
      </trkpt>
      <trkpt lat="45.12994" lon="5.92162">
        <ele>2111.19</ele>
        <time>2018-05-04T09:44:41Z</time>
      </trkpt>
      <trkpt lat="45.12993" lon="5.92163">
        <ele>2113.12</ele>
        <time>2018-05-04T09:44:52Z</time>
      </trkpt>
      <trkpt lat="45.12992" lon="5.92166">
        <ele>2115.04</ele>
        <time>2018-05-04T09:45:05Z</time>
      </trkpt>
      <trkpt lat="45.12992" lon="5.92165">
        <ele>2116.48</ele>
        <time>2018-05-04T09:45:16Z</time>
      </trkpt>
      <trkpt lat="45.12991" lon="5.92166">
        <ele>2117.92</ele>
        <time>2018-05-04T09:45:32Z</time>
      </trkpt>
      <trkpt lat="45.12992" lon="5.92165">
        <ele>2119.84</ele>
        <time>2018-05-04T09:45:42Z</time>
      </trkpt>
      <trkpt lat="45.12992" lon="5.92162">
        <ele>2121.29</ele>
        <time>2018-05-04T09:45:52Z</time>
      </trkpt>
      <trkpt lat="45.12988" lon="5.92179">
        <ele>2123.21</ele>
        <time>2018-05-04T09:46:02Z</time>
      </trkpt>
      <trkpt lat="45.12986" lon="5.92178">
        <ele>2124.65</ele>
        <time>2018-05-04T09:46:14Z</time>
      </trkpt>
      <trkpt lat="45.12984" lon="5.92181">
        <ele>2125.13</ele>
        <time>2018-05-04T09:46:17Z</time>
      </trkpt>
      <trkpt lat="45.12983" lon="5.92184">
        <ele>2126.09</ele>
        <time>2018-05-04T09:46:19Z</time>
      </trkpt>
      <trkpt lat="45.12978" lon="5.92197">
        <ele>2127.53</ele>
        <time>2018-05-04T09:46:30Z</time>
      </trkpt>
      <trkpt lat="45.12978" lon="5.92194">
        <ele>2129.46</ele>
        <time>2018-05-04T09:46:45Z</time>
      </trkpt>
      <trkpt lat="45.12975" lon="5.92199">
        <ele>2131.38</ele>
        <time>2018-05-04T09:46:59Z</time>
      </trkpt>
      <trkpt lat="45.12974" lon="5.92203">
        <ele>2132.82</ele>
        <time>2018-05-04T09:47:16Z</time>
      </trkpt>
      <trkpt lat="45.12973" lon="5.92207">
        <ele>2134.26</ele>
        <time>2018-05-04T09:47:27Z</time>
      </trkpt>
      <trkpt lat="45.12971" lon="5.92204">
        <ele>2136.19</ele>
        <time>2018-05-04T09:47:39Z</time>
      </trkpt>
      <trkpt lat="45.1297" lon="5.92202">
        <ele>2137.63</ele>
        <time>2018-05-04T09:47:51Z</time>
      </trkpt>
      <trkpt lat="45.1297" lon="5.92201">
        <ele>2138.11</ele>
        <time>2018-05-04T09:47:53Z</time>
      </trkpt>
      <trkpt lat="45.12969" lon="5.92203">
        <ele>2140.03</ele>
        <time>2018-05-04T09:48:05Z</time>
      </trkpt>
      <trkpt lat="45.12966" lon="5.92218">
        <ele>2142.92</ele>
        <time>2018-05-04T09:48:20Z</time>
      </trkpt>
      <trkpt lat="45.12967" lon="5.92216">
        <ele>2143.88</ele>
        <time>2018-05-04T09:48:31Z</time>
      </trkpt>
      <trkpt lat="45.12964" lon="5.92214">
        <ele>2145.8</ele>
        <time>2018-05-04T09:48:43Z</time>
      </trkpt>
      <trkpt lat="45.12961" lon="5.92221">
        <ele>2147.24</ele>
        <time>2018-05-04T09:48:51Z</time>
      </trkpt>
      <trkpt lat="45.1296" lon="5.92236">
        <ele>2149.16</ele>
        <time>2018-05-04T09:49:04Z</time>
      </trkpt>
      <trkpt lat="45.12958" lon="5.92262">
        <ele>2151.57</ele>
        <time>2018-05-04T09:49:19Z</time>
      </trkpt>
      <trkpt lat="45.12956" lon="5.92253">
        <ele>2153.01</ele>
        <time>2018-05-04T09:49:33Z</time>
      </trkpt>
      <trkpt lat="45.12956" lon="5.92242">
        <ele>2154.45</ele>
        <time>2018-05-04T09:49:46Z</time>
      </trkpt>
      <trkpt lat="45.12954" lon="5.92242">
        <ele>2156.86</ele>
        <time>2018-05-04T09:49:59Z</time>
      </trkpt>
      <trkpt lat="45.12955" lon="5.92232">
        <ele>2157.34</ele>
        <time>2018-05-04T09:50:16Z</time>
      </trkpt>
      <trkpt lat="45.12951" lon="5.92238">
        <ele>2159.74</ele>
        <time>2018-05-04T09:50:29Z</time>
      </trkpt>
      <trkpt lat="45.1295" lon="5.92249">
        <ele>2160.22</ele>
        <time>2018-05-04T09:50:43Z</time>
      </trkpt>
      <trkpt lat="45.12944" lon="5.92265">
        <ele>2162.62</ele>
        <time>2018-05-04T09:50:56Z</time>
      </trkpt>
      <trkpt lat="45.12943" lon="5.92271">
        <ele>2164.06</ele>
        <time>2018-05-04T09:51:13Z</time>
      </trkpt>
      <trkpt lat="45.12947" lon="5.92262">
        <ele>2165.51</ele>
        <time>2018-05-04T09:51:28Z</time>
      </trkpt>
      <trkpt lat="45.12938" lon="5.92286">
        <ele>2167.43</ele>
        <time>2018-05-04T09:51:42Z</time>
      </trkpt>
      <trkpt lat="45.12928" lon="5.92318">
        <ele>2169.35</ele>
        <time>2018-05-04T09:51:55Z</time>
      </trkpt>
      <trkpt lat="45.12924" lon="5.9232">
        <ele>2170.79</ele>
        <time>2018-05-04T09:52:11Z</time>
      </trkpt>
      <trkpt lat="45.12926" lon="5.92311">
        <ele>2172.72</ele>
        <time>2018-05-04T09:52:27Z</time>
      </trkpt>
      <trkpt lat="45.12926" lon="5.92304">
        <ele>2174.16</ele>
        <time>2018-05-04T09:52:39Z</time>
      </trkpt>
      <trkpt lat="45.12926" lon="5.92305">
        <ele>2175.12</ele>
        <time>2018-05-04T09:52:52Z</time>
      </trkpt>
      <trkpt lat="45.12929" lon="5.92286">
        <ele>2177.52</ele>
        <time>2018-05-04T09:53:08Z</time>
      </trkpt>
      <trkpt lat="45.12935" lon="5.92268">
        <ele>2179.45</ele>
        <time>2018-05-04T09:53:22Z</time>
      </trkpt>
      <trkpt lat="45.12936" lon="5.92263">
        <ele>2180.89</ele>
        <time>2018-05-04T09:53:37Z</time>
      </trkpt>
      <trkpt lat="45.12936" lon="5.92269">
        <ele>2182.33</ele>
        <time>2018-05-04T09:53:55Z</time>
      </trkpt>
      <trkpt lat="45.12937" lon="5.92265">
        <ele>2183.77</ele>
        <time>2018-05-04T09:54:16Z</time>
      </trkpt>
      <trkpt lat="45.12937" lon="5.92262">
        <ele>2185.21</ele>
        <time>2018-05-04T09:54:32Z</time>
      </trkpt>
      <trkpt lat="45.12934" lon="5.92262">
        <ele>2186.66</ele>
        <time>2018-05-04T09:54:52Z</time>
      </trkpt>
      <trkpt lat="45.12932" lon="5.92267">
        <ele>2189.54</ele>
        <time>2018-05-04T09:55:09Z</time>
      </trkpt>
      <trkpt lat="45.12931" lon="5.92272">
        <ele>2191.46</ele>
        <time>2018-05-04T09:55:25Z</time>
      </trkpt>
      <trkpt lat="45.12932" lon="5.92267">
        <ele>2192.9</ele>
        <time>2018-05-04T09:55:50Z</time>
      </trkpt>
      <trkpt lat="45.12931" lon="5.92272">
        <ele>2194.83</ele>
        <time>2018-05-04T09:56:01Z</time>
      </trkpt>
      <trkpt lat="45.12928" lon="5.9227">
        <ele>2196.75</ele>
        <time>2018-05-04T09:56:15Z</time>
      </trkpt>
      <trkpt lat="45.12927" lon="5.92273">
        <ele>2197.23</ele>
        <time>2018-05-04T09:56:35Z</time>
      </trkpt>
      <trkpt lat="45.12926" lon="5.92273">
        <ele>2199.15</ele>
        <time>2018-05-04T09:56:48Z</time>
      </trkpt>
      <trkpt lat="45.12926" lon="5.92274">
        <ele>2201.08</ele>
        <time>2018-05-04T09:57:02Z</time>
      </trkpt>
      <trkpt lat="45.12929" lon="5.92274">
        <ele>2202.04</ele>
        <time>2018-05-04T09:57:18Z</time>
      </trkpt>
      <trkpt lat="45.12927" lon="5.92271">
        <ele>2203.48</ele>
        <time>2018-05-04T09:57:33Z</time>
      </trkpt>
      <trkpt lat="45.12927" lon="5.92279">
        <ele>2205.4</ele>
        <time>2018-05-04T09:57:51Z</time>
      </trkpt>
      <trkpt lat="45.1293" lon="5.92292">
        <ele>2207.81</ele>
        <time>2018-05-04T09:58:11Z</time>
      </trkpt>
      <trkpt lat="45.12934" lon="5.92304">
        <ele>2209.73</ele>
        <time>2018-05-04T09:58:34Z</time>
      </trkpt>
      <trkpt lat="45.12957" lon="5.92296">
        <ele>2210.69</ele>
        <time>2018-05-04T09:58:53Z</time>
      </trkpt>
      <trkpt lat="45.12973" lon="5.92253">
        <ele>2211.17</ele>
        <time>2018-05-04T09:59:21Z</time>
      </trkpt>
      <trkpt lat="45.12974" lon="5.92239">
        <ele>2211.65</ele>
        <time>2018-05-04T09:59:50Z</time>
      </trkpt>
      <trkpt lat="45.1297" lon="5.92244">
        <ele>2214.05</ele>
        <time>2018-05-04T10:00:17Z</time>
      </trkpt>
      <trkpt lat="45.12966" lon="5.92235">
        <ele>2215.01</ele>
        <time>2018-05-04T10:00:39Z</time>
      </trkpt>
      <trkpt lat="45.12959" lon="5.9222">
        <ele>2218.86</ele>
        <time>2018-05-04T10:01:02Z</time>
      </trkpt>
      <trkpt lat="45.12955" lon="5.92223">
        <ele>2220.3</ele>
        <time>2018-05-04T10:01:29Z</time>
      </trkpt>
      <trkpt lat="45.1295" lon="5.92225">
        <ele>2222.22</ele>
        <time>2018-05-04T10:01:42Z</time>
      </trkpt>
      <trkpt lat="45.12948" lon="5.92226">
        <ele>2224.63</ele>
        <time>2018-05-04T10:01:57Z</time>
      </trkpt>
      <trkpt lat="45.12946" lon="5.92228">
        <ele>2227.03</ele>
        <time>2018-05-04T10:02:16Z</time>
      </trkpt>
      <trkpt lat="45.12944" lon="5.92231">
        <ele>2228.95</ele>
        <time>2018-05-04T10:02:38Z</time>
      </trkpt>
      <trkpt lat="45.12941" lon="5.92229">
        <ele>2230.4</ele>
        <time>2018-05-04T10:02:57Z</time>
      </trkpt>
      <trkpt lat="45.12933" lon="5.92229">
        <ele>2232.8</ele>
        <time>2018-05-04T10:03:12Z</time>
      </trkpt>
      <trkpt lat="45.12926" lon="5.92245">
        <ele>2234.24</ele>
        <time>2018-05-04T10:03:28Z</time>
      </trkpt>
      <trkpt lat="45.12925" lon="5.92247">
        <ele>2235.2</ele>
        <time>2018-05-04T10:03:42Z</time>
      </trkpt>
      <trkpt lat="45.12924" lon="5.92247">
        <ele>2237.13</ele>
        <time>2018-05-04T10:03:56Z</time>
      </trkpt>
      <trkpt lat="45.12921" lon="5.92248">
        <ele>2239.05</ele>
        <time>2018-05-04T10:04:09Z</time>
      </trkpt>
      <trkpt lat="45.1292" lon="5.9225">
        <ele>2240.49</ele>
        <time>2018-05-04T10:04:22Z</time>
      </trkpt>
      <trkpt lat="45.12918" lon="5.92252">
        <ele>2241.93</ele>
        <time>2018-05-04T10:04:38Z</time>
      </trkpt>
      <trkpt lat="45.12915" lon="5.92258">
        <ele>2243.37</ele>
        <time>2018-05-04T10:04:54Z</time>
      </trkpt>
      <trkpt lat="45.12912" lon="5.92264">
        <ele>2244.82</ele>
        <time>2018-05-04T10:05:10Z</time>
      </trkpt>
      <trkpt lat="45.12907" lon="5.9227">
        <ele>2247.22</ele>
        <time>2018-05-04T10:05:25Z</time>
      </trkpt>
      <trkpt lat="45.12907" lon="5.92275">
        <ele>2248.66</ele>
        <time>2018-05-04T10:05:37Z</time>
      </trkpt>
      <trkpt lat="45.12907" lon="5.92275">
        <ele>2249.62</ele>
        <time>2018-05-04T10:05:50Z</time>
      </trkpt>
      <trkpt lat="45.12907" lon="5.92274">
        <ele>2250.58</ele>
        <time>2018-05-04T10:06:06Z</time>
      </trkpt>
      <trkpt lat="45.12902" lon="5.92279">
        <ele>2252.99</ele>
        <time>2018-05-04T10:06:21Z</time>
      </trkpt>
      <trkpt lat="45.12898" lon="5.92279">
        <ele>2255.87</ele>
        <time>2018-05-04T10:06:33Z</time>
      </trkpt>
      <trkpt lat="45.12897" lon="5.9228">
        <ele>2252.99</ele>
        <time>2018-05-04T10:06:46Z</time>
      </trkpt>
      <trkpt lat="45.12898" lon="5.92281">
        <ele>2255.87</ele>
        <time>2018-05-04T10:06:50Z</time>
      </trkpt>
      <trkpt lat="45.12899" lon="5.92282">
        <ele>2251.06</ele>
        <time>2018-05-04T10:06:52Z</time>
      </trkpt>
      <trkpt lat="45.12898" lon="5.92282">
        <ele>2254.43</ele>
        <time>2018-05-04T10:06:53Z</time>
      </trkpt>
      <trkpt lat="45.12898" lon="5.92282">
        <ele>2258.27</ele>
        <time>2018-05-04T10:06:56Z</time>
      </trkpt>
      <trkpt lat="45.12897" lon="5.92282">
        <ele>2258.27</ele>
        <time>2018-05-04T10:06:57Z</time>
      </trkpt>
      <trkpt lat="45.12897" lon="5.92282">
        <ele>2254.91</ele>
        <time>2018-05-04T10:06:59Z</time>
      </trkpt>
      <trkpt lat="45.12897" lon="5.92282">
        <ele>2254.91</ele>
        <time>2018-05-04T10:07:00Z</time>
      </trkpt>
      <trkpt lat="45.12895" lon="5.92279">
        <ele>2254.43</ele>
        <time>2018-05-04T10:07:30Z</time>
      </trkpt>
      <trkpt lat="45.12898" lon="5.9228">
        <ele>2254.91</ele>
        <time>2018-05-04T10:08:05Z</time>
      </trkpt>
      <trkpt lat="45.12897" lon="5.92282">
        <ele>2253.95</ele>
        <time>2018-05-04T10:08:54Z</time>
      </trkpt>
      <trkpt lat="45.12897" lon="5.92282">
        <ele>2256.35</ele>
        <time>2018-05-04T10:08:56Z</time>
      </trkpt>
      <trkpt lat="45.12896" lon="5.92281">
        <ele>2254.91</ele>
        <time>2018-05-04T10:08:59Z</time>
      </trkpt>
      <trkpt lat="45.12897" lon="5.92279">
        <ele>2255.39</ele>
        <time>2018-05-04T10:09:28Z</time>
      </trkpt>
      <trkpt lat="45.12898" lon="5.9228">
        <ele>2254.91</ele>
        <time>2018-05-04T10:09:57Z</time>
      </trkpt>
      <trkpt lat="45.12896" lon="5.92282">
        <ele>2257.31</ele>
        <time>2018-05-04T10:10:26Z</time>
      </trkpt>
      <trkpt lat="45.12896" lon="5.92283">
        <ele>2253.95</ele>
        <time>2018-05-04T10:10:37Z</time>
      </trkpt>
      <trkpt lat="45.12896" lon="5.92284">
        <ele>2255.39</ele>
        <time>2018-05-04T10:11:17Z</time>
      </trkpt>
      <trkpt lat="45.12899" lon="5.92283">
        <ele>2254.91</ele>
        <time>2018-05-04T10:11:58Z</time>
      </trkpt>
      <trkpt lat="45.12896" lon="5.92284">
        <ele>2255.39</ele>
        <time>2018-05-04T10:12:33Z</time>
      </trkpt>
      <trkpt lat="45.12896" lon="5.92281">
        <ele>2256.83</ele>
        <time>2018-05-04T10:12:43Z</time>
      </trkpt>
      <trkpt lat="45.12897" lon="5.9228">
        <ele>2258.75</ele>
        <time>2018-05-04T10:13:05Z</time>
      </trkpt>
      <trkpt lat="45.12896" lon="5.9228">
        <ele>2257.31</ele>
        <time>2018-05-04T10:13:07Z</time>
      </trkpt>
      <trkpt lat="45.12897" lon="5.92283">
        <ele>2256.35</ele>
        <time>2018-05-04T10:13:28Z</time>
      </trkpt>
      <trkpt lat="45.12897" lon="5.92283">
        <ele>2257.79</ele>
        <time>2018-05-04T10:13:36Z</time>
      </trkpt>
      <trkpt lat="45.12897" lon="5.92284">
        <ele>2256.83</ele>
        <time>2018-05-04T10:14:04Z</time>
      </trkpt>
      <trkpt lat="45.129" lon="5.92277">
        <ele>2254.91</ele>
        <time>2018-05-04T10:14:17Z</time>
      </trkpt>
      <trkpt lat="45.12901" lon="5.92276">
        <ele>2253.95</ele>
        <time>2018-05-04T10:14:28Z</time>
      </trkpt>
      <trkpt lat="45.12903" lon="5.92277">
        <ele>2252.51</ele>
        <time>2018-05-04T10:14:41Z</time>
      </trkpt>
      <trkpt lat="45.12906" lon="5.92279">
        <ele>2251.06</ele>
        <time>2018-05-04T10:14:54Z</time>
      </trkpt>
      <trkpt lat="45.12906" lon="5.92277">
        <ele>2251.06</ele>
        <time>2018-05-04T10:15:11Z</time>
      </trkpt>
      <trkpt lat="45.12905" lon="5.92278">
        <ele>2251.54</ele>
        <time>2018-05-04T10:15:24Z</time>
      </trkpt>
      <trkpt lat="45.12908" lon="5.92275">
        <ele>2250.1</ele>
        <time>2018-05-04T10:15:33Z</time>
      </trkpt>
      <trkpt lat="45.12909" lon="5.92274">
        <ele>2249.14</ele>
        <time>2018-05-04T10:15:53Z</time>
      </trkpt>
      <trkpt lat="45.12911" lon="5.92272">
        <ele>2248.18</ele>
        <time>2018-05-04T10:16:08Z</time>
      </trkpt>
      <trkpt lat="45.12912" lon="5.92271">
        <ele>2247.22</ele>
        <time>2018-05-04T10:16:25Z</time>
      </trkpt>
      <trkpt lat="45.12913" lon="5.92269">
        <ele>2246.74</ele>
        <time>2018-05-04T10:16:29Z</time>
      </trkpt>
      <trkpt lat="45.12914" lon="5.92265">
        <ele>2244.33</ele>
        <time>2018-05-04T10:16:33Z</time>
      </trkpt>
      <trkpt lat="45.12911" lon="5.92268">
        <ele>2243.37</ele>
        <time>2018-05-04T10:16:48Z</time>
      </trkpt>
      <trkpt lat="45.12913" lon="5.9227">
        <ele>2243.85</ele>
        <time>2018-05-04T10:16:54Z</time>
      </trkpt>
      <trkpt lat="45.12915" lon="5.92268">
        <ele>2242.41</ele>
        <time>2018-05-04T10:16:57Z</time>
      </trkpt>
      <trkpt lat="45.12918" lon="5.92265">
        <ele>2240.49</ele>
        <time>2018-05-04T10:17:00Z</time>
      </trkpt>
      <trkpt lat="45.1292" lon="5.92262">
        <ele>2237.61</ele>
        <time>2018-05-04T10:17:03Z</time>
      </trkpt>
      <trkpt lat="45.12922" lon="5.92261">
        <ele>2237.13</ele>
        <time>2018-05-04T10:17:18Z</time>
      </trkpt>
      <trkpt lat="45.12926" lon="5.92257">
        <ele>2234.24</ele>
        <time>2018-05-04T10:17:23Z</time>
      </trkpt>
      <trkpt lat="45.12932" lon="5.92252">
        <ele>2230.4</ele>
        <time>2018-05-04T10:17:27Z</time>
      </trkpt>
      <trkpt lat="45.12934" lon="5.92251">
        <ele>2228.47</ele>
        <time>2018-05-04T10:17:30Z</time>
      </trkpt>
      <trkpt lat="45.12937" lon="5.9225">
        <ele>2227.03</ele>
        <time>2018-05-04T10:17:45Z</time>
      </trkpt>
      <trkpt lat="45.1294" lon="5.92249">
        <ele>2225.59</ele>
        <time>2018-05-04T10:17:59Z</time>
      </trkpt>
      <trkpt lat="45.12939" lon="5.92245">
        <ele>2225.11</ele>
        <time>2018-05-04T10:18:18Z</time>
      </trkpt>
      <trkpt lat="45.12939" lon="5.92244">
        <ele>2224.63</ele>
        <time>2018-05-04T10:18:20Z</time>
      </trkpt>
      <trkpt lat="45.12943" lon="5.92241">
        <ele>2221.74</ele>
        <time>2018-05-04T10:18:23Z</time>
      </trkpt>
      <trkpt lat="45.12947" lon="5.92236">
        <ele>2218.86</ele>
        <time>2018-05-04T10:18:26Z</time>
      </trkpt>
      <trkpt lat="45.12949" lon="5.92238">
        <ele>2215.01</ele>
        <time>2018-05-04T10:18:27Z</time>
      </trkpt>
      <trkpt lat="45.12956" lon="5.92234">
        <ele>2212.13</ele>
        <time>2018-05-04T10:18:29Z</time>
      </trkpt>
      <trkpt lat="45.12962" lon="5.92237">
        <ele>2210.69</ele>
        <time>2018-05-04T10:18:40Z</time>
      </trkpt>
      <trkpt lat="45.1297" lon="5.92244">
        <ele>2211.17</ele>
        <time>2018-05-04T10:19:12Z</time>
      </trkpt>
      <trkpt lat="45.12973" lon="5.92244">
        <ele>2211.65</ele>
        <time>2018-05-04T10:19:31Z</time>
      </trkpt>
      <trkpt lat="45.12975" lon="5.92248">
        <ele>2212.13</ele>
        <time>2018-05-04T10:19:59Z</time>
      </trkpt>
      <trkpt lat="45.12974" lon="5.92244">
        <ele>2212.61</ele>
        <time>2018-05-04T10:20:24Z</time>
      </trkpt>
      <trkpt lat="45.12979" lon="5.92241">
        <ele>2213.09</ele>
        <time>2018-05-04T10:20:45Z</time>
      </trkpt>
      <trkpt lat="45.12988" lon="5.92227">
        <ele>2209.25</ele>
        <time>2018-05-04T10:20:49Z</time>
      </trkpt>
      <trkpt lat="45.12994" lon="5.92206">
        <ele>2197.71</ele>
        <time>2018-05-04T10:20:52Z</time>
      </trkpt>
      <trkpt lat="45.12994" lon="5.92198">
        <ele>2194.35</ele>
        <time>2018-05-04T10:20:53Z</time>
      </trkpt>
      <trkpt lat="45.13002" lon="5.92183">
        <ele>2186.66</ele>
        <time>2018-05-04T10:20:56Z</time>
      </trkpt>
      <trkpt lat="45.1301" lon="5.92161">
        <ele>2178.97</ele>
        <time>2018-05-04T10:20:59Z</time>
      </trkpt>
      <trkpt lat="45.13012" lon="5.92156">
        <ele>2174.16</ele>
        <time>2018-05-04T10:21:00Z</time>
      </trkpt>
      <trkpt lat="45.13017" lon="5.92146">
        <ele>2173.2</ele>
        <time>2018-05-04T10:21:01Z</time>
      </trkpt>
      <trkpt lat="45.13023" lon="5.9214">
        <ele>2168.39</ele>
        <time>2018-05-04T10:21:02Z</time>
      </trkpt>
      <trkpt lat="45.13029" lon="5.92133">
        <ele>2163.1</ele>
        <time>2018-05-04T10:21:03Z</time>
      </trkpt>
      <trkpt lat="45.13044" lon="5.92106">
        <ele>2152.53</ele>
        <time>2018-05-04T10:21:06Z</time>
      </trkpt>
      <trkpt lat="45.13047" lon="5.92096">
        <ele>2148.2</ele>
        <time>2018-05-04T10:21:07Z</time>
      </trkpt>
      <trkpt lat="45.13048" lon="5.92087">
        <ele>2148.2</ele>
        <time>2018-05-04T10:21:08Z</time>
      </trkpt>
      <trkpt lat="45.13055" lon="5.92069">
        <ele>2138.59</ele>
        <time>2018-05-04T10:21:10Z</time>
      </trkpt>
      <trkpt lat="45.13072" lon="5.92051">
        <ele>2127.53</ele>
        <time>2018-05-04T10:21:13Z</time>
      </trkpt>
      <trkpt lat="45.13082" lon="5.92034">
        <ele>2116.96</ele>
        <time>2018-05-04T10:21:15Z</time>
      </trkpt>
      <trkpt lat="45.13089" lon="5.92026">
        <ele>2112.15</ele>
        <time>2018-05-04T10:21:16Z</time>
      </trkpt>
      <trkpt lat="45.13095" lon="5.9202">
        <ele>2108.31</ele>
        <time>2018-05-04T10:21:17Z</time>
      </trkpt>
      <trkpt lat="45.13102" lon="5.92015">
        <ele>2102.06</ele>
        <time>2018-05-04T10:21:18Z</time>
      </trkpt>
      <trkpt lat="45.13112" lon="5.92">
        <ele>2093.89</ele>
        <time>2018-05-04T10:21:20Z</time>
      </trkpt>
      <trkpt lat="45.13111" lon="5.91985">
        <ele>2087.16</ele>
        <time>2018-05-04T10:21:21Z</time>
      </trkpt>
      <trkpt lat="45.13111" lon="5.91976">
        <ele>2082.35</ele>
        <time>2018-05-04T10:21:22Z</time>
      </trkpt>
      <trkpt lat="45.1312" lon="5.91964">
        <ele>2075.14</ele>
        <time>2018-05-04T10:21:23Z</time>
      </trkpt>
      <trkpt lat="45.13127" lon="5.91958">
        <ele>2070.82</ele>
        <time>2018-05-04T10:21:24Z</time>
      </trkpt>
      <trkpt lat="45.13153" lon="5.91936">
        <ele>2054.96</ele>
        <time>2018-05-04T10:21:26Z</time>
      </trkpt>
      <trkpt lat="45.13161" lon="5.91924">
        <ele>2048.71</ele>
        <time>2018-05-04T10:21:27Z</time>
      </trkpt>
      <trkpt lat="45.13167" lon="5.91912">
        <ele>2042.94</ele>
        <time>2018-05-04T10:21:28Z</time>
      </trkpt>
      <trkpt lat="45.13174" lon="5.91897">
        <ele>2034.77</ele>
        <time>2018-05-04T10:21:29Z</time>
      </trkpt>
      <trkpt lat="45.13016" lon="5.91929">
        <ele>2027.08</ele>
        <time>2018-05-04T10:21:31Z</time>
      </trkpt>
      <trkpt lat="45.13013" lon="5.91923">
        <ele>2027.08</ele>
        <time>2018-05-04T10:21:32Z</time>
      </trkpt>
      <trkpt lat="45.13006" lon="5.91913">
        <ele>2026.12</ele>
        <time>2018-05-04T10:21:34Z</time>
      </trkpt>
      <trkpt lat="45.13011" lon="5.9192">
        <ele>2025.64</ele>
        <time>2018-05-04T10:21:36Z</time>
      </trkpt>
      <trkpt lat="45.13012" lon="5.91922">
        <ele>2026.12</ele>
        <time>2018-05-04T10:21:38Z</time>
      </trkpt>
      <trkpt lat="45.13014" lon="5.91921">
        <ele>2029.96</ele>
        <time>2018-05-04T10:21:40Z</time>
      </trkpt>
      <trkpt lat="45.13018" lon="5.91923">
        <ele>2029</ele>
        <time>2018-05-04T10:21:41Z</time>
      </trkpt>
      <trkpt lat="45.13032" lon="5.91934">
        <ele>2025.64</ele>
        <time>2018-05-04T10:21:44Z</time>
      </trkpt>
      <trkpt lat="45.13048" lon="5.91949">
        <ele>2023.23</ele>
        <time>2018-05-04T10:21:48Z</time>
      </trkpt>
      <trkpt lat="45.13055" lon="5.91956">
        <ele>2021.79</ele>
        <time>2018-05-04T10:22:00Z</time>
      </trkpt>
      <trkpt lat="45.13055" lon="5.91957">
        <ele>2021.31</ele>
        <time>2018-05-04T10:22:23Z</time>
      </trkpt>
      <trkpt lat="45.13054" lon="5.91957">
        <ele>2021.31</ele>
        <time>2018-05-04T10:22:53Z</time>
      </trkpt>
      <trkpt lat="45.13055" lon="5.91957">
        <ele>2021.31</ele>
        <time>2018-05-04T10:23:15Z</time>
      </trkpt>
      <trkpt lat="45.13053" lon="5.91936">
        <ele>2018.91</ele>
        <time>2018-05-04T10:23:19Z</time>
      </trkpt>
      <trkpt lat="45.13047" lon="5.91922">
        <ele>2016.98</ele>
        <time>2018-05-04T10:23:21Z</time>
      </trkpt>
      <trkpt lat="45.1304" lon="5.9189">
        <ele>2012.18</ele>
        <time>2018-05-04T10:23:25Z</time>
      </trkpt>
      <trkpt lat="45.13039" lon="5.9188">
        <ele>2011.22</ele>
        <time>2018-05-04T10:23:27Z</time>
      </trkpt>
      <trkpt lat="45.13034" lon="5.91843">
        <ele>2008.81</ele>
        <time>2018-05-04T10:23:39Z</time>
      </trkpt>
      <trkpt lat="45.13029" lon="5.91819">
        <ele>2005.45</ele>
        <time>2018-05-04T10:23:44Z</time>
      </trkpt>
      <trkpt lat="45.13028" lon="5.9181">
        <ele>2004.97</ele>
        <time>2018-05-04T10:23:52Z</time>
      </trkpt>
      <trkpt lat="45.13028" lon="5.91809">
        <ele>2004.49</ele>
        <time>2018-05-04T10:24:10Z</time>
      </trkpt>
      <trkpt lat="45.13027" lon="5.91809">
        <ele>1991.51</ele>
        <time>2018-05-04T10:24:14Z</time>
      </trkpt>
      <trkpt lat="45.13027" lon="5.91809">
        <ele>2001.6</ele>
        <time>2018-05-04T10:24:15Z</time>
      </trkpt>
      <trkpt lat="45.13027" lon="5.91809">
        <ele>2004.97</ele>
        <time>2018-05-04T10:24:16Z</time>
      </trkpt>
      <trkpt lat="45.13027" lon="5.91809">
        <ele>2004.97</ele>
        <time>2018-05-04T10:24:17Z</time>
      </trkpt>
      <trkpt lat="45.13028" lon="5.9181">
        <ele>2000.16</ele>
        <time>2018-05-04T10:24:47Z</time>
      </trkpt>
      <trkpt lat="45.13027" lon="5.9181">
        <ele>2005.45</ele>
        <time>2018-05-04T10:24:50Z</time>
      </trkpt>
      <trkpt lat="45.13029" lon="5.9181">
        <ele>2003.04</ele>
        <time>2018-05-04T10:25:39Z</time>
      </trkpt>
      <trkpt lat="45.13028" lon="5.91809">
        <ele>2002.56</ele>
        <time>2018-05-04T10:26:19Z</time>
      </trkpt>
      <trkpt lat="45.13028" lon="5.91809">
        <ele>2002.56</ele>
        <time>2018-05-04T10:27:14Z</time>
      </trkpt>
      <trkpt lat="45.13028" lon="5.91809">
        <ele>2001.6</ele>
        <time>2018-05-04T10:27:57Z</time>
      </trkpt>
      <trkpt lat="45.13028" lon="5.91809">
        <ele>2001.12</ele>
        <time>2018-05-04T10:28:37Z</time>
      </trkpt>
      <trkpt lat="45.13027" lon="5.91808">
        <ele>2001.12</ele>
        <time>2018-05-04T10:29:32Z</time>
      </trkpt>
      <trkpt lat="45.13027" lon="5.91809">
        <ele>2002.56</ele>
        <time>2018-05-04T10:30:16Z</time>
      </trkpt>
      <trkpt lat="45.13027" lon="5.91809">
        <ele>1997.76</ele>
        <time>2018-05-04T10:30:26Z</time>
      </trkpt>
      <trkpt lat="45.13027" lon="5.9181">
        <ele>2002.08</ele>
        <time>2018-05-04T10:30:27Z</time>
      </trkpt>
      <trkpt lat="45.13027" lon="5.9181">
        <ele>1997.28</ele>
        <time>2018-05-04T10:30:30Z</time>
      </trkpt>
      <trkpt lat="45.13027" lon="5.9181">
        <ele>2001.6</ele>
        <time>2018-05-04T10:30:31Z</time>
      </trkpt>
      <trkpt lat="45.13028" lon="5.91809">
        <ele>2000.16</ele>
        <time>2018-05-04T10:30:37Z</time>
      </trkpt>
      <trkpt lat="45.13028" lon="5.91809">
        <ele>2003.04</ele>
        <time>2018-05-04T10:30:53Z</time>
      </trkpt>
      <trkpt lat="45.13028" lon="5.9181">
        <ele>2003.04</ele>
        <time>2018-05-04T10:31:05Z</time>
      </trkpt>
      <trkpt lat="45.13028" lon="5.91807">
        <ele>2003.04</ele>
        <time>2018-05-04T10:31:18Z</time>
      </trkpt>
      <trkpt lat="45.13028" lon="5.91806">
        <ele>2002.56</ele>
        <time>2018-05-04T10:31:45Z</time>
      </trkpt>
      <trkpt lat="45.13026" lon="5.91801">
        <ele>2004.49</ele>
        <time>2018-05-04T10:31:51Z</time>
      </trkpt>
      <trkpt lat="45.13022" lon="5.91792">
        <ele>2005.93</ele>
        <time>2018-05-04T10:31:59Z</time>
      </trkpt>
      <trkpt lat="45.13023" lon="5.91777">
        <ele>2008.33</ele>
        <time>2018-05-04T10:32:12Z</time>
      </trkpt>
      <trkpt lat="45.13023" lon="5.91765">
        <ele>2009.29</ele>
        <time>2018-05-04T10:32:21Z</time>
      </trkpt>
      <trkpt lat="45.13023" lon="5.91756">
        <ele>2009.77</ele>
        <time>2018-05-04T10:32:27Z</time>
      </trkpt>
      <trkpt lat="45.13021" lon="5.91732">
        <ele>2010.25</ele>
        <time>2018-05-04T10:32:42Z</time>
      </trkpt>
      <trkpt lat="45.13022" lon="5.91723">
        <ele>2010.73</ele>
        <time>2018-05-04T10:32:49Z</time>
      </trkpt>
      <trkpt lat="45.13021" lon="5.917">
        <ele>2010.73</ele>
        <time>2018-05-04T10:33:04Z</time>
      </trkpt>
      <trkpt lat="45.13019" lon="5.91682">
        <ele>2012.66</ele>
        <time>2018-05-04T10:33:18Z</time>
      </trkpt>
      <trkpt lat="45.13019" lon="5.91676">
        <ele>2012.66</ele>
        <time>2018-05-04T10:33:20Z</time>
      </trkpt>
      <trkpt lat="45.13016" lon="5.91669">
        <ele>2013.62</ele>
        <time>2018-05-04T10:33:27Z</time>
      </trkpt>
      <trkpt lat="45.13016" lon="5.9166">
        <ele>2014.1</ele>
        <time>2018-05-04T10:33:33Z</time>
      </trkpt>
      <trkpt lat="45.13013" lon="5.91649">
        <ele>2014.58</ele>
        <time>2018-05-04T10:33:41Z</time>
      </trkpt>
      <trkpt lat="45.13014" lon="5.91642">
        <ele>2014.58</ele>
        <time>2018-05-04T10:33:45Z</time>
      </trkpt>
      <trkpt lat="45.13013" lon="5.91633">
        <ele>2014.58</ele>
        <time>2018-05-04T10:33:52Z</time>
      </trkpt>
      <trkpt lat="45.1301" lon="5.9162">
        <ele>2015.06</ele>
        <time>2018-05-04T10:33:59Z</time>
      </trkpt>
      <trkpt lat="45.13008" lon="5.91611">
        <ele>2015.54</ele>
        <time>2018-05-04T10:34:06Z</time>
      </trkpt>
      <trkpt lat="45.13006" lon="5.916">
        <ele>2016.5</ele>
        <time>2018-05-04T10:34:15Z</time>
      </trkpt>
      <trkpt lat="45.13003" lon="5.91582">
        <ele>2017.94</ele>
        <time>2018-05-04T10:34:31Z</time>
      </trkpt>
      <trkpt lat="45.13001" lon="5.91573">
        <ele>2018.43</ele>
        <time>2018-05-04T10:34:44Z</time>
      </trkpt>
      <trkpt lat="45.12998" lon="5.91564">
        <ele>2019.87</ele>
        <time>2018-05-04T10:34:52Z</time>
      </trkpt>
      <trkpt lat="45.12995" lon="5.9156">
        <ele>2021.31</ele>
        <time>2018-05-04T10:34:57Z</time>
      </trkpt>
      <trkpt lat="45.12988" lon="5.91548">
        <ele>2023.71</ele>
        <time>2018-05-04T10:35:10Z</time>
      </trkpt>
      <trkpt lat="45.12987" lon="5.91546">
        <ele>2023.71</ele>
        <time>2018-05-04T10:35:11Z</time>
      </trkpt>
      <trkpt lat="45.12983" lon="5.9153">
        <ele>2026.6</ele>
        <time>2018-05-04T10:35:22Z</time>
      </trkpt>
      <trkpt lat="45.12981" lon="5.91523">
        <ele>2027.56</ele>
        <time>2018-05-04T10:35:28Z</time>
      </trkpt>
      <trkpt lat="45.12978" lon="5.91512">
        <ele>2028.52</ele>
        <time>2018-05-04T10:35:34Z</time>
      </trkpt>
      <trkpt lat="45.12977" lon="5.91508">
        <ele>2029.96</ele>
        <time>2018-05-04T10:35:39Z</time>
      </trkpt>
      <trkpt lat="45.12977" lon="5.91497">
        <ele>2032.36</ele>
        <time>2018-05-04T10:35:51Z</time>
      </trkpt>
      <trkpt lat="45.12978" lon="5.91486">
        <ele>2035.25</ele>
        <time>2018-05-04T10:36:05Z</time>
      </trkpt>
      <trkpt lat="45.12978" lon="5.9147">
        <ele>2037.65</ele>
        <time>2018-05-04T10:36:19Z</time>
      </trkpt>
      <trkpt lat="45.12975" lon="5.91464">
        <ele>2040.54</ele>
        <time>2018-05-04T10:36:31Z</time>
      </trkpt>
      <trkpt lat="45.12971" lon="5.91464">
        <ele>2041.98</ele>
        <time>2018-05-04T10:36:37Z</time>
      </trkpt>
      <trkpt lat="45.12963" lon="5.91447">
        <ele>2044.38</ele>
        <time>2018-05-04T10:36:51Z</time>
      </trkpt>
      <trkpt lat="45.1296" lon="5.91437">
        <ele>2046.78</ele>
        <time>2018-05-04T10:37:05Z</time>
      </trkpt>
      <trkpt lat="45.12955" lon="5.9142">
        <ele>2049.67</ele>
        <time>2018-05-04T10:37:19Z</time>
      </trkpt>
      <trkpt lat="45.1295" lon="5.91411">
        <ele>2051.59</ele>
        <time>2018-05-04T10:37:31Z</time>
      </trkpt>
      <trkpt lat="45.12949" lon="5.9141">
        <ele>2052.07</ele>
        <time>2018-05-04T10:37:33Z</time>
      </trkpt>
      <trkpt lat="45.12943" lon="5.91398">
        <ele>2054.47</ele>
        <time>2018-05-04T10:37:47Z</time>
      </trkpt>
      <trkpt lat="45.12941" lon="5.91392">
        <ele>2055.44</ele>
        <time>2018-05-04T10:37:53Z</time>
      </trkpt>
      <trkpt lat="45.12934" lon="5.91377">
        <ele>2057.84</ele>
        <time>2018-05-04T10:38:09Z</time>
      </trkpt>
      <trkpt lat="45.12934" lon="5.91371">
        <ele>2059.76</ele>
        <time>2018-05-04T10:38:17Z</time>
      </trkpt>
      <trkpt lat="45.1293" lon="5.91356">
        <ele>2062.65</ele>
        <time>2018-05-04T10:38:33Z</time>
      </trkpt>
      <trkpt lat="45.12925" lon="5.91345">
        <ele>2064.57</ele>
        <time>2018-05-04T10:38:47Z</time>
      </trkpt>
      <trkpt lat="45.12918" lon="5.91335">
        <ele>2066.97</ele>
        <time>2018-05-04T10:38:58Z</time>
      </trkpt>
      <trkpt lat="45.12913" lon="5.91326">
        <ele>2068.89</ele>
        <time>2018-05-04T10:39:11Z</time>
      </trkpt>
      <trkpt lat="45.12911" lon="5.91318">
        <ele>2069.86</ele>
        <time>2018-05-04T10:39:18Z</time>
      </trkpt>
      <trkpt lat="45.1291" lon="5.91313">
        <ele>2070.82</ele>
        <time>2018-05-04T10:39:24Z</time>
      </trkpt>
      <trkpt lat="45.12904" lon="5.91298">
        <ele>2073.22</ele>
        <time>2018-05-04T10:39:39Z</time>
      </trkpt>
      <trkpt lat="45.129" lon="5.91286">
        <ele>2075.62</ele>
        <time>2018-05-04T10:39:53Z</time>
      </trkpt>
      <trkpt lat="45.12893" lon="5.91272">
        <ele>2078.51</ele>
        <time>2018-05-04T10:40:07Z</time>
      </trkpt>
      <trkpt lat="45.12888" lon="5.91258">
        <ele>2080.91</ele>
        <time>2018-05-04T10:40:23Z</time>
      </trkpt>
      <trkpt lat="45.12883" lon="5.91246">
        <ele>2083.79</ele>
        <time>2018-05-04T10:40:37Z</time>
      </trkpt>
      <trkpt lat="45.12879" lon="5.91234">
        <ele>2086.2</ele>
        <time>2018-05-04T10:40:50Z</time>
      </trkpt>
      <trkpt lat="45.12875" lon="5.91222">
        <ele>2088.6</ele>
        <time>2018-05-04T10:41:04Z</time>
      </trkpt>
      <trkpt lat="45.12869" lon="5.91211">
        <ele>2091.49</ele>
        <time>2018-05-04T10:41:19Z</time>
      </trkpt>
      <trkpt lat="45.12862" lon="5.91196">
        <ele>2094.85</ele>
        <time>2018-05-04T10:41:36Z</time>
      </trkpt>
      <trkpt lat="45.12856" lon="5.91182">
        <ele>2096.77</ele>
        <time>2018-05-04T10:41:51Z</time>
      </trkpt>
      <trkpt lat="45.12854" lon="5.91179">
        <ele>2097.25</ele>
        <time>2018-05-04T10:41:55Z</time>
      </trkpt>
      <trkpt lat="45.12849" lon="5.91164">
        <ele>2098.21</ele>
        <time>2018-05-04T10:42:08Z</time>
      </trkpt>
      <trkpt lat="45.12842" lon="5.91153">
        <ele>2099.18</ele>
        <time>2018-05-04T10:42:18Z</time>
      </trkpt>
      <trkpt lat="45.12833" lon="5.91143">
        <ele>2101.58</ele>
        <time>2018-05-04T10:42:30Z</time>
      </trkpt>
      <trkpt lat="45.12832" lon="5.91139">
        <ele>2102.54</ele>
        <time>2018-05-04T10:42:34Z</time>
      </trkpt>
      <trkpt lat="45.12826" lon="5.91129">
        <ele>2103.98</ele>
        <time>2018-05-04T10:42:44Z</time>
      </trkpt>
      <trkpt lat="45.12822" lon="5.9112">
        <ele>2105.42</ele>
        <time>2018-05-04T10:42:52Z</time>
      </trkpt>
      <trkpt lat="45.12813" lon="5.91104">
        <ele>2106.87</ele>
        <time>2018-05-04T10:43:07Z</time>
      </trkpt>
      <trkpt lat="45.12811" lon="5.911">
        <ele>2107.83</ele>
        <time>2018-05-04T10:43:11Z</time>
      </trkpt>
      <trkpt lat="45.12801" lon="5.91084">
        <ele>2109.75</ele>
        <time>2018-05-04T10:43:27Z</time>
      </trkpt>
      <trkpt lat="45.12801" lon="5.91083">
        <ele>2109.75</ele>
        <time>2018-05-04T10:43:28Z</time>
      </trkpt>
      <trkpt lat="45.12795" lon="5.91072">
        <ele>2110.71</ele>
        <time>2018-05-04T10:43:39Z</time>
      </trkpt>
      <trkpt lat="45.1279" lon="5.91068">
        <ele>2111.19</ele>
        <time>2018-05-04T10:43:43Z</time>
      </trkpt>
      <trkpt lat="45.12787" lon="5.91062">
        <ele>2112.15</ele>
        <time>2018-05-04T10:43:49Z</time>
      </trkpt>
      <trkpt lat="45.12784" lon="5.91056">
        <ele>2112.63</ele>
        <time>2018-05-04T10:43:55Z</time>
      </trkpt>
      <trkpt lat="45.12781" lon="5.91052">
        <ele>2113.12</ele>
        <time>2018-05-04T10:43:59Z</time>
      </trkpt>
      <trkpt lat="45.12776" lon="5.91046">
        <ele>2114.08</ele>
        <time>2018-05-04T10:44:07Z</time>
      </trkpt>
      <trkpt lat="45.12767" lon="5.91034">
        <ele>2115.52</ele>
        <time>2018-05-04T10:44:20Z</time>
      </trkpt>
      <trkpt lat="45.12758" lon="5.91026">
        <ele>2116.96</ele>
        <time>2018-05-04T10:44:31Z</time>
      </trkpt>
      <trkpt lat="45.12752" lon="5.91016">
        <ele>2117.92</ele>
        <time>2018-05-04T10:44:42Z</time>
      </trkpt>
      <trkpt lat="45.12748" lon="5.91012">
        <ele>2118.88</ele>
        <time>2018-05-04T10:44:49Z</time>
      </trkpt>
      <trkpt lat="45.12735" lon="5.91004">
        <ele>2121.29</ele>
        <time>2018-05-04T10:45:03Z</time>
      </trkpt>
      <trkpt lat="45.1273" lon="5.91">
        <ele>2122.73</ele>
        <time>2018-05-04T10:45:11Z</time>
      </trkpt>
      <trkpt lat="45.12722" lon="5.90987">
        <ele>2125.61</ele>
        <time>2018-05-04T10:45:26Z</time>
      </trkpt>
      <trkpt lat="45.12716" lon="5.90978">
        <ele>2127.53</ele>
        <time>2018-05-04T10:45:38Z</time>
      </trkpt>
      <trkpt lat="45.1271" lon="5.90966">
        <ele>2130.42</ele>
        <time>2018-05-04T10:45:53Z</time>
      </trkpt>
      <trkpt lat="45.12704" lon="5.90953">
        <ele>2132.82</ele>
        <time>2018-05-04T10:46:09Z</time>
      </trkpt>
      <trkpt lat="45.12699" lon="5.90945">
        <ele>2134.74</ele>
        <time>2018-05-04T10:46:16Z</time>
      </trkpt>
      <trkpt lat="45.12693" lon="5.90932">
        <ele>2137.63</ele>
        <time>2018-05-04T10:46:32Z</time>
      </trkpt>
      <trkpt lat="45.12687" lon="5.9092">
        <ele>2139.55</ele>
        <time>2018-05-04T10:46:46Z</time>
      </trkpt>
      <trkpt lat="45.12681" lon="5.90908">
        <ele>2141.95</ele>
        <time>2018-05-04T10:46:59Z</time>
      </trkpt>
      <trkpt lat="45.12677" lon="5.909">
        <ele>2143.88</ele>
        <time>2018-05-04T10:47:11Z</time>
      </trkpt>
      <trkpt lat="45.12674" lon="5.90891">
        <ele>2145.8</ele>
        <time>2018-05-04T10:47:22Z</time>
      </trkpt>
      <trkpt lat="45.12669" lon="5.90882">
        <ele>2148.2</ele>
        <time>2018-05-04T10:47:35Z</time>
      </trkpt>
      <trkpt lat="45.12662" lon="5.90869">
        <ele>2151.57</ele>
        <time>2018-05-04T10:47:50Z</time>
      </trkpt>
      <trkpt lat="45.12654" lon="5.9087">
        <ele>2153.49</ele>
        <time>2018-05-04T10:48:03Z</time>
      </trkpt>
      <trkpt lat="45.12652" lon="5.90872">
        <ele>2154.45</ele>
        <time>2018-05-04T10:48:07Z</time>
      </trkpt>
      <trkpt lat="45.12645" lon="5.90878">
        <ele>2156.37</ele>
        <time>2018-05-04T10:48:19Z</time>
      </trkpt>
      <trkpt lat="45.12641" lon="5.90881">
        <ele>2158.78</ele>
        <time>2018-05-04T10:48:30Z</time>
      </trkpt>
      <trkpt lat="45.12638" lon="5.90887">
        <ele>2160.7</ele>
        <time>2018-05-04T10:48:43Z</time>
      </trkpt>
      <trkpt lat="45.12631" lon="5.90895">
        <ele>2162.62</ele>
        <time>2018-05-04T10:48:55Z</time>
      </trkpt>
      <trkpt lat="45.12625" lon="5.90906">
        <ele>2164.55</ele>
        <time>2018-05-04T10:49:09Z</time>
      </trkpt>
      <trkpt lat="45.12624" lon="5.90908">
        <ele>2165.51</ele>
        <time>2018-05-04T10:49:11Z</time>
      </trkpt>
      <trkpt lat="45.12618" lon="5.90916">
        <ele>2167.43</ele>
        <time>2018-05-04T10:49:23Z</time>
      </trkpt>
      <trkpt lat="45.12614" lon="5.90923">
        <ele>2169.35</ele>
        <time>2018-05-04T10:49:35Z</time>
      </trkpt>
      <trkpt lat="45.12608" lon="5.90934">
        <ele>2172.24</ele>
        <time>2018-05-04T10:49:49Z</time>
      </trkpt>
      <trkpt lat="45.12603" lon="5.90945">
        <ele>2175.12</ele>
        <time>2018-05-04T10:50:03Z</time>
      </trkpt>
      <trkpt lat="45.126" lon="5.90946">
        <ele>2175.6</ele>
        <time>2018-05-04T10:50:07Z</time>
      </trkpt>
      <trkpt lat="45.12595" lon="5.90943">
        <ele>2176.08</ele>
        <time>2018-05-04T10:50:13Z</time>
      </trkpt>
      <trkpt lat="45.12594" lon="5.90928">
        <ele>2177.04</ele>
        <time>2018-05-04T10:50:27Z</time>
      </trkpt>
      <trkpt lat="45.12596" lon="5.90914">
        <ele>2178.48</ele>
        <time>2018-05-04T10:50:41Z</time>
      </trkpt>
      <trkpt lat="45.12595" lon="5.90896">
        <ele>2180.41</ele>
        <time>2018-05-04T10:50:57Z</time>
      </trkpt>
      <trkpt lat="45.12594" lon="5.90885">
        <ele>2182.81</ele>
        <time>2018-05-04T10:51:10Z</time>
      </trkpt>
      <trkpt lat="45.12595" lon="5.90867">
        <ele>2185.69</ele>
        <time>2018-05-04T10:51:29Z</time>
      </trkpt>
      <trkpt lat="45.12594" lon="5.90856">
        <ele>2187.62</ele>
        <time>2018-05-04T10:51:41Z</time>
      </trkpt>
      <trkpt lat="45.12594" lon="5.90843">
        <ele>2189.54</ele>
        <time>2018-05-04T10:51:57Z</time>
      </trkpt>
      <trkpt lat="45.12594" lon="5.90833">
        <ele>2191.94</ele>
        <time>2018-05-04T10:52:11Z</time>
      </trkpt>
      <trkpt lat="45.12594" lon="5.90822">
        <ele>2194.83</ele>
        <time>2018-05-04T10:52:26Z</time>
      </trkpt>
      <trkpt lat="45.12595" lon="5.90811">
        <ele>2197.23</ele>
        <time>2018-05-04T10:52:40Z</time>
      </trkpt>
      <trkpt lat="45.12594" lon="5.90801">
        <ele>2199.15</ele>
        <time>2018-05-04T10:52:54Z</time>
      </trkpt>
      <trkpt lat="45.12592" lon="5.90788">
        <ele>2201.56</ele>
        <time>2018-05-04T10:53:09Z</time>
      </trkpt>
      <trkpt lat="45.12592" lon="5.90777">
        <ele>2203.96</ele>
        <time>2018-05-04T10:53:24Z</time>
      </trkpt>
      <trkpt lat="45.12592" lon="5.90768">
        <ele>2205.4</ele>
        <time>2018-05-04T10:53:37Z</time>
      </trkpt>
      <trkpt lat="45.12591" lon="5.90757">
        <ele>2207.32</ele>
        <time>2018-05-04T10:53:49Z</time>
      </trkpt>
      <trkpt lat="45.12591" lon="5.90745">
        <ele>2209.25</ele>
        <time>2018-05-04T10:54:02Z</time>
      </trkpt>
      <trkpt lat="45.12593" lon="5.90734">
        <ele>2211.17</ele>
        <time>2018-05-04T10:54:16Z</time>
      </trkpt>
      <trkpt lat="45.12593" lon="5.90723">
        <ele>2213.09</ele>
        <time>2018-05-04T10:54:30Z</time>
      </trkpt>
      <trkpt lat="45.12595" lon="5.90711">
        <ele>2215.5</ele>
        <time>2018-05-04T10:54:45Z</time>
      </trkpt>
      <trkpt lat="45.12592" lon="5.90699">
        <ele>2217.9</ele>
        <time>2018-05-04T10:55:01Z</time>
      </trkpt>
      <trkpt lat="45.12589" lon="5.90686">
        <ele>2220.78</ele>
        <time>2018-05-04T10:55:14Z</time>
      </trkpt>
      <trkpt lat="45.12587" lon="5.90676">
        <ele>2223.19</ele>
        <time>2018-05-04T10:55:31Z</time>
      </trkpt>
      <trkpt lat="45.12583" lon="5.90665">
        <ele>2225.11</ele>
        <time>2018-05-04T10:55:46Z</time>
      </trkpt>
      <trkpt lat="45.1258" lon="5.90655">
        <ele>2226.55</ele>
        <time>2018-05-04T10:55:59Z</time>
      </trkpt>
      <trkpt lat="45.12577" lon="5.90645">
        <ele>2228.95</ele>
        <time>2018-05-04T10:56:10Z</time>
      </trkpt>
      <trkpt lat="45.12574" lon="5.90636">
        <ele>2230.88</ele>
        <time>2018-05-04T10:56:23Z</time>
      </trkpt>
      <trkpt lat="45.12571" lon="5.90626">
        <ele>2232.8</ele>
        <time>2018-05-04T10:56:36Z</time>
      </trkpt>
      <trkpt lat="45.12568" lon="5.90615">
        <ele>2234.24</ele>
        <time>2018-05-04T10:56:46Z</time>
      </trkpt>
      <trkpt lat="45.12564" lon="5.90605">
        <ele>2236.16</ele>
        <time>2018-05-04T10:56:58Z</time>
      </trkpt>
      <trkpt lat="45.12562" lon="5.90593">
        <ele>2238.57</ele>
        <time>2018-05-04T10:57:13Z</time>
      </trkpt>
      <trkpt lat="45.12554" lon="5.90575">
        <ele>2241.45</ele>
        <time>2018-05-04T10:57:32Z</time>
      </trkpt>
      <trkpt lat="45.12551" lon="5.90563">
        <ele>2242.89</ele>
        <time>2018-05-04T10:57:44Z</time>
      </trkpt>
      <trkpt lat="45.12551" lon="5.90551">
        <ele>2244.82</ele>
        <time>2018-05-04T10:58:00Z</time>
      </trkpt>
      <trkpt lat="45.12551" lon="5.9055">
        <ele>2244.82</ele>
        <time>2018-05-04T10:58:01Z</time>
      </trkpt>
      <trkpt lat="45.1255" lon="5.90538">
        <ele>2245.3</ele>
        <time>2018-05-04T10:58:11Z</time>
      </trkpt>
      <trkpt lat="45.12553" lon="5.90527">
        <ele>2245.3</ele>
        <time>2018-05-04T10:58:19Z</time>
      </trkpt>
      <trkpt lat="45.12555" lon="5.90522">
        <ele>2245.3</ele>
        <time>2018-05-04T10:58:23Z</time>
      </trkpt>
      <trkpt lat="45.12557" lon="5.90515">
        <ele>2245.3</ele>
        <time>2018-05-04T10:58:28Z</time>
      </trkpt>
      <trkpt lat="45.12562" lon="5.90499">
        <ele>2245.3</ele>
        <time>2018-05-04T10:58:39Z</time>
      </trkpt>
      <trkpt lat="45.12564" lon="5.90486">
        <ele>2245.3</ele>
        <time>2018-05-04T10:58:48Z</time>
      </trkpt>
      <trkpt lat="45.12565" lon="5.90481">
        <ele>2245.3</ele>
        <time>2018-05-04T10:58:52Z</time>
      </trkpt>
      <trkpt lat="45.12571" lon="5.9046">
        <ele>2245.78</ele>
        <time>2018-05-04T10:59:08Z</time>
      </trkpt>
      <trkpt lat="45.12574" lon="5.90447">
        <ele>2245.78</ele>
        <time>2018-05-04T10:59:17Z</time>
      </trkpt>
      <trkpt lat="45.12577" lon="5.90442">
        <ele>2245.78</ele>
        <time>2018-05-04T10:59:21Z</time>
      </trkpt>
      <trkpt lat="45.12579" lon="5.90438">
        <ele>2245.78</ele>
        <time>2018-05-04T10:59:24Z</time>
      </trkpt>
      <trkpt lat="45.12584" lon="5.90422">
        <ele>2245.78</ele>
        <time>2018-05-04T10:59:37Z</time>
      </trkpt>
      <trkpt lat="45.12587" lon="5.9041">
        <ele>2246.26</ele>
        <time>2018-05-04T10:59:45Z</time>
      </trkpt>
      <trkpt lat="45.12589" lon="5.90405">
        <ele>2246.26</ele>
        <time>2018-05-04T10:59:49Z</time>
      </trkpt>
      <trkpt lat="45.12592" lon="5.9039">
        <ele>2246.26</ele>
        <time>2018-05-04T10:59:59Z</time>
      </trkpt>
      <trkpt lat="45.12591" lon="5.90375">
        <ele>2246.26</ele>
        <time>2018-05-04T11:00:13Z</time>
      </trkpt>
      <trkpt lat="45.12593" lon="5.90358">
        <ele>2246.74</ele>
        <time>2018-05-04T11:00:24Z</time>
      </trkpt>
      <trkpt lat="45.12594" lon="5.90346">
        <ele>2246.74</ele>
        <time>2018-05-04T11:00:31Z</time>
      </trkpt>
      <trkpt lat="45.12591" lon="5.90332">
        <ele>2246.74</ele>
        <time>2018-05-04T11:00:40Z</time>
      </trkpt>
      <trkpt lat="45.12591" lon="5.90324">
        <ele>2247.22</ele>
        <time>2018-05-04T11:00:45Z</time>
      </trkpt>
      <trkpt lat="45.1259" lon="5.90319">
        <ele>2247.22</ele>
        <time>2018-05-04T11:00:49Z</time>
      </trkpt>
      <trkpt lat="45.12588" lon="5.90296">
        <ele>2247.22</ele>
        <time>2018-05-04T11:01:04Z</time>
      </trkpt>
      <trkpt lat="45.12587" lon="5.90284">
        <ele>2247.7</ele>
        <time>2018-05-04T11:01:13Z</time>
      </trkpt>
      <trkpt lat="45.12586" lon="5.90276">
        <ele>2248.66</ele>
        <time>2018-05-04T11:01:19Z</time>
      </trkpt>
      <trkpt lat="45.12585" lon="5.90269">
        <ele>2249.14</ele>
        <time>2018-05-04T11:01:25Z</time>
      </trkpt>
      <trkpt lat="45.12584" lon="5.90262">
        <ele>2249.14</ele>
        <time>2018-05-04T11:01:41Z</time>
      </trkpt>
      <trkpt lat="45.12583" lon="5.90263">
        <ele>2247.7</ele>
        <time>2018-05-04T11:01:49Z</time>
      </trkpt>
      <trkpt lat="45.12583" lon="5.90263">
        <ele>2249.62</ele>
        <time>2018-05-04T11:01:51Z</time>
      </trkpt>
      <trkpt lat="45.12584" lon="5.90259">
        <ele>2248.66</ele>
        <time>2018-05-04T11:02:01Z</time>
      </trkpt>
      <trkpt lat="45.12585" lon="5.9026">
        <ele>2248.66</ele>
        <time>2018-05-04T11:02:13Z</time>
      </trkpt>
      <trkpt lat="45.12586" lon="5.9026">
        <ele>2247.22</ele>
        <time>2018-05-04T11:02:29Z</time>
      </trkpt>
      <trkpt lat="45.12585" lon="5.90261">
        <ele>2247.7</ele>
        <time>2018-05-04T11:02:53Z</time>
      </trkpt>
      <trkpt lat="45.12586" lon="5.90258">
        <ele>2248.18</ele>
        <time>2018-05-04T11:03:24Z</time>
      </trkpt>
      <trkpt lat="45.12586" lon="5.9026">
        <ele>2248.18</ele>
        <time>2018-05-04T11:04:13Z</time>
      </trkpt>
      <trkpt lat="45.12586" lon="5.90258">
        <ele>2249.14</ele>
        <time>2018-05-04T11:04:48Z</time>
      </trkpt>
      <trkpt lat="45.12584" lon="5.90258">
        <ele>2247.7</ele>
        <time>2018-05-04T11:05:19Z</time>
      </trkpt>
      <trkpt lat="45.12584" lon="5.90255">
        <ele>2247.7</ele>
        <time>2018-05-04T11:06:11Z</time>
      </trkpt>
      <trkpt lat="45.12586" lon="5.90259">
        <ele>2248.18</ele>
        <time>2018-05-04T11:07:02Z</time>
      </trkpt>
      <trkpt lat="45.12586" lon="5.9026">
        <ele>2248.18</ele>
        <time>2018-05-04T11:07:42Z</time>
      </trkpt>
      <trkpt lat="45.12588" lon="5.90261">
        <ele>2248.18</ele>
        <time>2018-05-04T11:08:18Z</time>
      </trkpt>
      <trkpt lat="45.1259" lon="5.90257">
        <ele>2248.18</ele>
        <time>2018-05-04T11:08:55Z</time>
      </trkpt>
      <trkpt lat="45.12587" lon="5.90258">
        <ele>2248.18</ele>
        <time>2018-05-04T11:09:24Z</time>
      </trkpt>
      <trkpt lat="45.12587" lon="5.9026">
        <ele>2248.18</ele>
        <time>2018-05-04T11:09:56Z</time>
      </trkpt>
      <trkpt lat="45.12586" lon="5.90259">
        <ele>2242.41</ele>
        <time>2018-05-04T11:10:05Z</time>
      </trkpt>
      <trkpt lat="45.12586" lon="5.90259">
        <ele>2248.18</ele>
        <time>2018-05-04T11:10:06Z</time>
      </trkpt>
      <trkpt lat="45.12585" lon="5.90259">
        <ele>2250.58</ele>
        <time>2018-05-04T11:10:09Z</time>
      </trkpt>
      <trkpt lat="45.12587" lon="5.90258">
        <ele>2249.14</ele>
        <time>2018-05-04T11:10:16Z</time>
      </trkpt>
      <trkpt lat="45.12585" lon="5.90257">
        <ele>2249.14</ele>
        <time>2018-05-04T11:10:32Z</time>
      </trkpt>
      <trkpt lat="45.12586" lon="5.90257">
        <ele>2248.66</ele>
        <time>2018-05-04T11:10:53Z</time>
      </trkpt>
      <trkpt lat="45.12586" lon="5.90257">
        <ele>2249.14</ele>
        <time>2018-05-04T11:11:09Z</time>
      </trkpt>
      <trkpt lat="45.12586" lon="5.90257">
        <ele>2249.62</ele>
        <time>2018-05-04T11:11:25Z</time>
      </trkpt>
      <trkpt lat="45.12584" lon="5.9026">
        <ele>2249.62</ele>
        <time>2018-05-04T11:11:36Z</time>
      </trkpt>
      <trkpt lat="45.12583" lon="5.90262">
        <ele>2249.62</ele>
        <time>2018-05-04T11:11:55Z</time>
      </trkpt>
      <trkpt lat="45.12586" lon="5.90268">
        <ele>2249.62</ele>
        <time>2018-05-04T11:12:07Z</time>
      </trkpt>
      <trkpt lat="45.12589" lon="5.90272">
        <ele>2249.62</ele>
        <time>2018-05-04T11:12:13Z</time>
      </trkpt>
      <trkpt lat="45.12606" lon="5.90277">
        <ele>2246.26</ele>
        <time>2018-05-04T11:12:20Z</time>
      </trkpt>
      <trkpt lat="45.1261" lon="5.90277">
        <ele>2246.26</ele>
        <time>2018-05-04T11:12:21Z</time>
      </trkpt>
      <trkpt lat="45.12622" lon="5.90275">
        <ele>2244.82</ele>
        <time>2018-05-04T11:12:24Z</time>
      </trkpt>
      <trkpt lat="45.12637" lon="5.90263">
        <ele>2241.93</ele>
        <time>2018-05-04T11:12:27Z</time>
      </trkpt>
      <trkpt lat="45.12646" lon="5.90249">
        <ele>2239.53</ele>
        <time>2018-05-04T11:12:29Z</time>
      </trkpt>
      <trkpt lat="45.12655" lon="5.90233">
        <ele>2236.16</ele>
        <time>2018-05-04T11:12:31Z</time>
      </trkpt>
      <trkpt lat="45.12669" lon="5.90197">
        <ele>2228.47</ele>
        <time>2018-05-04T11:12:35Z</time>
      </trkpt>
      <trkpt lat="45.12673" lon="5.9018">
        <ele>2223.67</ele>
        <time>2018-05-04T11:12:37Z</time>
      </trkpt>
      <trkpt lat="45.12681" lon="5.90161">
        <ele>2218.38</ele>
        <time>2018-05-04T11:12:39Z</time>
      </trkpt>
      <trkpt lat="45.12684" lon="5.90148">
        <ele>2215.5</ele>
        <time>2018-05-04T11:12:40Z</time>
      </trkpt>
      <trkpt lat="45.1269" lon="5.90138">
        <ele>2211.65</ele>
        <time>2018-05-04T11:12:41Z</time>
      </trkpt>
      <trkpt lat="45.12698" lon="5.90132">
        <ele>2206.36</ele>
        <time>2018-05-04T11:12:42Z</time>
      </trkpt>
      <trkpt lat="45.12705" lon="5.90124">
        <ele>2203</ele>
        <time>2018-05-04T11:12:43Z</time>
      </trkpt>
      <trkpt lat="45.12707" lon="5.90112">
        <ele>2198.19</ele>
        <time>2018-05-04T11:12:44Z</time>
      </trkpt>
      <trkpt lat="45.12714" lon="5.90082">
        <ele>2185.21</ele>
        <time>2018-05-04T11:12:47Z</time>
      </trkpt>
      <trkpt lat="45.12721" lon="5.9008">
        <ele>2181.37</ele>
        <time>2018-05-04T11:12:48Z</time>
      </trkpt>
      <trkpt lat="45.12728" lon="5.90076">
        <ele>2177.52</ele>
        <time>2018-05-04T11:12:49Z</time>
      </trkpt>
      <trkpt lat="45.12733" lon="5.90069">
        <ele>2172.72</ele>
        <time>2018-05-04T11:12:50Z</time>
      </trkpt>
      <trkpt lat="45.12735" lon="5.90062">
        <ele>2168.87</ele>
        <time>2018-05-04T11:12:51Z</time>
      </trkpt>
      <trkpt lat="45.12729" lon="5.90051">
        <ele>2164.55</ele>
        <time>2018-05-04T11:12:53Z</time>
      </trkpt>
      <trkpt lat="45.12726" lon="5.90044">
        <ele>2160.7</ele>
        <time>2018-05-04T11:12:56Z</time>
      </trkpt>
      <trkpt lat="45.12726" lon="5.90044">
        <ele>2160.7</ele>
        <time>2018-05-04T11:12:57Z</time>
      </trkpt>
      <trkpt lat="45.12725" lon="5.90043">
        <ele>2162.14</ele>
        <time>2018-05-04T11:13:01Z</time>
      </trkpt>
      <trkpt lat="45.12724" lon="5.9004">
        <ele>2162.14</ele>
        <time>2018-05-04T11:13:09Z</time>
      </trkpt>
      <trkpt lat="45.12729" lon="5.90033">
        <ele>2156.86</ele>
        <time>2018-05-04T11:13:11Z</time>
      </trkpt>
      <trkpt lat="45.12733" lon="5.90027">
        <ele>2152.05</ele>
        <time>2018-05-04T11:13:13Z</time>
      </trkpt>
      <trkpt lat="45.12733" lon="5.90016">
        <ele>2147.24</ele>
        <time>2018-05-04T11:13:15Z</time>
      </trkpt>
      <trkpt lat="45.12735" lon="5.9001">
        <ele>2144.36</ele>
        <time>2018-05-04T11:13:16Z</time>
      </trkpt>
      <trkpt lat="45.12735" lon="5.90004">
        <ele>2140.51</ele>
        <time>2018-05-04T11:13:17Z</time>
      </trkpt>
      <trkpt lat="45.12736" lon="5.89992">
        <ele>2133.3</ele>
        <time>2018-05-04T11:13:19Z</time>
      </trkpt>
      <trkpt lat="45.12739" lon="5.89986">
        <ele>2129.94</ele>
        <time>2018-05-04T11:13:20Z</time>
      </trkpt>
      <trkpt lat="45.1274" lon="5.89978">
        <ele>2124.65</ele>
        <time>2018-05-04T11:13:21Z</time>
      </trkpt>
      <trkpt lat="45.12735" lon="5.89965">
        <ele>2119.84</ele>
        <time>2018-05-04T11:13:23Z</time>
      </trkpt>
      <trkpt lat="45.12735" lon="5.89959">
        <ele>2116</ele>
        <time>2018-05-04T11:13:24Z</time>
      </trkpt>
      <trkpt lat="45.12737" lon="5.89953">
        <ele>2111.19</ele>
        <time>2018-05-04T11:13:25Z</time>
      </trkpt>
      <trkpt lat="45.12738" lon="5.89946">
        <ele>2106.87</ele>
        <time>2018-05-04T11:13:26Z</time>
      </trkpt>
      <trkpt lat="45.12737" lon="5.89936">
        <ele>2103.02</ele>
        <time>2018-05-04T11:13:27Z</time>
      </trkpt>
      <trkpt lat="45.12732" lon="5.89928">
        <ele>2096.77</ele>
        <time>2018-05-04T11:13:28Z</time>
      </trkpt>
      <trkpt lat="45.12728" lon="5.89904">
        <ele>2091.49</ele>
        <time>2018-05-04T11:13:30Z</time>
      </trkpt>
      <trkpt lat="45.12727" lon="5.89889">
        <ele>2085.72</ele>
        <time>2018-05-04T11:13:31Z</time>
      </trkpt>
      <trkpt lat="45.12725" lon="5.89875">
        <ele>2080.43</ele>
        <time>2018-05-04T11:13:32Z</time>
      </trkpt>
      <trkpt lat="45.12719" lon="5.89862">
        <ele>2074.66</ele>
        <time>2018-05-04T11:13:33Z</time>
      </trkpt>
      <trkpt lat="45.12701" lon="5.89837">
        <ele>2066.01</ele>
        <time>2018-05-04T11:13:36Z</time>
      </trkpt>
      <trkpt lat="45.12692" lon="5.8982">
        <ele>2062.17</ele>
        <time>2018-05-04T11:13:38Z</time>
      </trkpt>
      <trkpt lat="45.12679" lon="5.89796">
        <ele>2057.36</ele>
        <time>2018-05-04T11:13:41Z</time>
      </trkpt>
      <trkpt lat="45.1267" lon="5.89779">
        <ele>2051.11</ele>
        <time>2018-05-04T11:13:43Z</time>
      </trkpt>
      <trkpt lat="45.1266" lon="5.89743">
        <ele>2043.9</ele>
        <time>2018-05-04T11:13:46Z</time>
      </trkpt>
      <trkpt lat="45.12658" lon="5.89729">
        <ele>2040.54</ele>
        <time>2018-05-04T11:13:47Z</time>
      </trkpt>
      <trkpt lat="45.12655" lon="5.89714">
        <ele>2037.17</ele>
        <time>2018-05-04T11:13:48Z</time>
      </trkpt>
      <trkpt lat="45.12652" lon="5.89699">
        <ele>2033.81</ele>
        <time>2018-05-04T11:13:49Z</time>
      </trkpt>
      <trkpt lat="45.12643" lon="5.89676">
        <ele>2028.52</ele>
        <time>2018-05-04T11:13:51Z</time>
      </trkpt>
      <trkpt lat="45.12644" lon="5.89653">
        <ele>2022.75</ele>
        <time>2018-05-04T11:13:53Z</time>
      </trkpt>
      <trkpt lat="45.12649" lon="5.8964">
        <ele>2018.91</ele>
        <time>2018-05-04T11:13:54Z</time>
      </trkpt>
      <trkpt lat="45.12644" lon="5.89596">
        <ele>2009.29</ele>
        <time>2018-05-04T11:13:57Z</time>
      </trkpt>
      <trkpt lat="45.12637" lon="5.89585">
        <ele>2005.45</ele>
        <time>2018-05-04T11:13:58Z</time>
      </trkpt>
      <trkpt lat="45.12626" lon="5.89549">
        <ele>1995.83</ele>
        <time>2018-05-04T11:14:02Z</time>
      </trkpt>
      <trkpt lat="45.12632" lon="5.89527">
        <ele>1990.55</ele>
        <time>2018-05-04T11:14:04Z</time>
      </trkpt>
      <trkpt lat="45.1264" lon="5.89475">
        <ele>1979.49</ele>
        <time>2018-05-04T11:14:08Z</time>
      </trkpt>
      <trkpt lat="45.12642" lon="5.89447">
        <ele>1974.2</ele>
        <time>2018-05-04T11:14:10Z</time>
      </trkpt>
      <trkpt lat="45.1265" lon="5.89437">
        <ele>1970.36</ele>
        <time>2018-05-04T11:14:12Z</time>
      </trkpt>
      <trkpt lat="45.12651" lon="5.89432">
        <ele>1967.96</ele>
        <time>2018-05-04T11:14:14Z</time>
      </trkpt>
      <trkpt lat="45.12652" lon="5.8941">
        <ele>1964.11</ele>
        <time>2018-05-04T11:14:19Z</time>
      </trkpt>
      <trkpt lat="45.12662" lon="5.894">
        <ele>1959.3</ele>
        <time>2018-05-04T11:14:21Z</time>
      </trkpt>
      <trkpt lat="45.12665" lon="5.8939">
        <ele>1955.46</ele>
        <time>2018-05-04T11:14:22Z</time>
      </trkpt>
      <trkpt lat="45.12662" lon="5.89376">
        <ele>1951.61</ele>
        <time>2018-05-04T11:14:24Z</time>
      </trkpt>
      <trkpt lat="45.12668" lon="5.89352">
        <ele>1943.44</ele>
        <time>2018-05-04T11:14:26Z</time>
      </trkpt>
      <trkpt lat="45.12672" lon="5.89332">
        <ele>1938.64</ele>
        <time>2018-05-04T11:14:28Z</time>
      </trkpt>
      <trkpt lat="45.12669" lon="5.89312">
        <ele>1934.31</ele>
        <time>2018-05-04T11:14:29Z</time>
      </trkpt>
      <trkpt lat="45.12668" lon="5.89302">
        <ele>1930.95</ele>
        <time>2018-05-04T11:14:30Z</time>
      </trkpt>
      <trkpt lat="45.12669" lon="5.89288">
        <ele>1928.06</ele>
        <time>2018-05-04T11:14:31Z</time>
      </trkpt>
      <trkpt lat="45.12677" lon="5.89268">
        <ele>1925.18</ele>
        <time>2018-05-04T11:14:33Z</time>
      </trkpt>
      <trkpt lat="45.12684" lon="5.89252">
        <ele>1922.77</ele>
        <time>2018-05-04T11:14:34Z</time>
      </trkpt>
      <trkpt lat="45.12683" lon="5.89223">
        <ele>1917.97</ele>
        <time>2018-05-04T11:14:38Z</time>
      </trkpt>
      <trkpt lat="45.12685" lon="5.89216">
        <ele>1916.53</ele>
        <time>2018-05-04T11:14:41Z</time>
      </trkpt>
      <trkpt lat="45.12686" lon="5.89196">
        <ele>1913.16</ele>
        <time>2018-05-04T11:14:45Z</time>
      </trkpt>
      <trkpt lat="45.12691" lon="5.89183">
        <ele>1906.91</ele>
        <time>2018-05-04T11:14:47Z</time>
      </trkpt>
      <trkpt lat="45.12693" lon="5.8917">
        <ele>1903.07</ele>
        <time>2018-05-04T11:14:49Z</time>
      </trkpt>
      <trkpt lat="45.12699" lon="5.89158">
        <ele>1898.26</ele>
        <time>2018-05-04T11:14:51Z</time>
      </trkpt>
      <trkpt lat="45.12703" lon="5.89143">
        <ele>1893.45</ele>
        <time>2018-05-04T11:14:53Z</time>
      </trkpt>
      <trkpt lat="45.12705" lon="5.89126">
        <ele>1886.72</ele>
        <time>2018-05-04T11:14:55Z</time>
      </trkpt>
      <trkpt lat="45.12704" lon="5.89118">
        <ele>1885.76</ele>
        <time>2018-05-04T11:14:56Z</time>
      </trkpt>
      <trkpt lat="45.12705" lon="5.89114">
        <ele>1883.36</ele>
        <time>2018-05-04T11:14:57Z</time>
      </trkpt>
      <trkpt lat="45.1271" lon="5.89102">
        <ele>1879.03</ele>
        <time>2018-05-04T11:14:59Z</time>
      </trkpt>
      <trkpt lat="45.12709" lon="5.89093">
        <ele>1876.15</ele>
        <time>2018-05-04T11:15:00Z</time>
      </trkpt>
      <trkpt lat="45.1271" lon="5.89087">
        <ele>1875.19</ele>
        <time>2018-05-04T11:15:01Z</time>
      </trkpt>
      <trkpt lat="45.1271" lon="5.89078">
        <ele>1873.27</ele>
        <time>2018-05-04T11:15:02Z</time>
      </trkpt>
      <trkpt lat="45.12708" lon="5.89071">
        <ele>1869.9</ele>
        <time>2018-05-04T11:15:03Z</time>
      </trkpt>
      <trkpt lat="45.12707" lon="5.89067">
        <ele>1870.38</ele>
        <time>2018-05-04T11:15:04Z</time>
      </trkpt>
      <trkpt lat="45.12706" lon="5.8906">
        <ele>1869.42</ele>
        <time>2018-05-04T11:15:05Z</time>
      </trkpt>
      <trkpt lat="45.12707" lon="5.89053">
        <ele>1868.94</ele>
        <time>2018-05-04T11:15:06Z</time>
      </trkpt>
      <trkpt lat="45.12708" lon="5.89045">
        <ele>1867.98</ele>
        <time>2018-05-04T11:15:07Z</time>
      </trkpt>
      <trkpt lat="45.1271" lon="5.89036">
        <ele>1867.98</ele>
        <time>2018-05-04T11:15:08Z</time>
      </trkpt>
      <trkpt lat="45.12711" lon="5.8903">
        <ele>1866.54</ele>
        <time>2018-05-04T11:15:09Z</time>
      </trkpt>
      <trkpt lat="45.12711" lon="5.89022">
        <ele>1866.06</ele>
        <time>2018-05-04T11:15:10Z</time>
      </trkpt>
      <trkpt lat="45.1271" lon="5.89015">
        <ele>1865.09</ele>
        <time>2018-05-04T11:15:11Z</time>
      </trkpt>
      <trkpt lat="45.12711" lon="5.89009">
        <ele>1864.61</ele>
        <time>2018-05-04T11:15:12Z</time>
      </trkpt>
      <trkpt lat="45.12713" lon="5.89001">
        <ele>1863.65</ele>
        <time>2018-05-04T11:15:13Z</time>
      </trkpt>
      <trkpt lat="45.12712" lon="5.88993">
        <ele>1861.25</ele>
        <time>2018-05-04T11:15:14Z</time>
      </trkpt>
      <trkpt lat="45.12711" lon="5.88984">
        <ele>1859.81</ele>
        <time>2018-05-04T11:15:15Z</time>
      </trkpt>
      <trkpt lat="45.12712" lon="5.88974">
        <ele>1858.37</ele>
        <time>2018-05-04T11:15:16Z</time>
      </trkpt>
      <trkpt lat="45.12711" lon="5.88965">
        <ele>1855.96</ele>
        <time>2018-05-04T11:15:17Z</time>
      </trkpt>
      <trkpt lat="45.1271" lon="5.88955">
        <ele>1854.52</ele>
        <time>2018-05-04T11:15:18Z</time>
      </trkpt>
      <trkpt lat="45.12711" lon="5.88949">
        <ele>1853.56</ele>
        <time>2018-05-04T11:15:19Z</time>
      </trkpt>
      <trkpt lat="45.12713" lon="5.88943">
        <ele>1852.6</ele>
        <time>2018-05-04T11:15:20Z</time>
      </trkpt>
      <trkpt lat="45.12711" lon="5.88927">
        <ele>1849.71</ele>
        <time>2018-05-04T11:15:22Z</time>
      </trkpt>
      <trkpt lat="45.12711" lon="5.88917">
        <ele>1847.31</ele>
        <time>2018-05-04T11:15:23Z</time>
      </trkpt>
      <trkpt lat="45.12707" lon="5.88903">
        <ele>1842.98</ele>
        <time>2018-05-04T11:15:25Z</time>
      </trkpt>
      <trkpt lat="45.12708" lon="5.88886">
        <ele>1837.7</ele>
        <time>2018-05-04T11:15:27Z</time>
      </trkpt>
      <trkpt lat="45.12705" lon="5.88877">
        <ele>1834.81</ele>
        <time>2018-05-04T11:15:28Z</time>
      </trkpt>
      <trkpt lat="45.12704" lon="5.88861">
        <ele>1830.01</ele>
        <time>2018-05-04T11:15:30Z</time>
      </trkpt>
      <trkpt lat="45.127" lon="5.88846">
        <ele>1825.68</ele>
        <time>2018-05-04T11:15:32Z</time>
      </trkpt>
      <trkpt lat="45.12698" lon="5.88829">
        <ele>1821.84</ele>
        <time>2018-05-04T11:15:34Z</time>
      </trkpt>
      <trkpt lat="45.1269" lon="5.88802">
        <ele>1818.47</ele>
        <time>2018-05-04T11:15:37Z</time>
      </trkpt>
      <trkpt lat="45.12676" lon="5.88772">
        <ele>1814.15</ele>
        <time>2018-05-04T11:15:41Z</time>
      </trkpt>
      <trkpt lat="45.12669" lon="5.88746">
        <ele>1811.74</ele>
        <time>2018-05-04T11:15:44Z</time>
      </trkpt>
      <trkpt lat="45.12661" lon="5.8872">
        <ele>1808.86</ele>
        <time>2018-05-04T11:15:47Z</time>
      </trkpt>
      <trkpt lat="45.12645" lon="5.88687">
        <ele>1804.53</ele>
        <time>2018-05-04T11:15:51Z</time>
      </trkpt>
      <trkpt lat="45.12637" lon="5.88669">
        <ele>1802.13</ele>
        <time>2018-05-04T11:15:53Z</time>
      </trkpt>
      <trkpt lat="45.12622" lon="5.88636">
        <ele>1799.24</ele>
        <time>2018-05-04T11:15:57Z</time>
      </trkpt>
      <trkpt lat="45.12612" lon="5.88603">
        <ele>1795.4</ele>
        <time>2018-05-04T11:16:01Z</time>
      </trkpt>
      <trkpt lat="45.12602" lon="5.88586">
        <ele>1792.03</ele>
        <time>2018-05-04T11:16:04Z</time>
      </trkpt>
      <trkpt lat="45.12593" lon="5.88575">
        <ele>1787.71</ele>
        <time>2018-05-04T11:16:06Z</time>
      </trkpt>
      <trkpt lat="45.12581" lon="5.88556">
        <ele>1782.9</ele>
        <time>2018-05-04T11:16:09Z</time>
      </trkpt>
      <trkpt lat="45.12567" lon="5.88539">
        <ele>1779.06</ele>
        <time>2018-05-04T11:16:12Z</time>
      </trkpt>
      <trkpt lat="45.12558" lon="5.88527">
        <ele>1775.69</ele>
        <time>2018-05-04T11:16:14Z</time>
      </trkpt>
      <trkpt lat="45.12547" lon="5.88523">
        <ele>1774.73</ele>
        <time>2018-05-04T11:16:16Z</time>
      </trkpt>
      <trkpt lat="45.12539" lon="5.88517">
        <ele>1772.81</ele>
        <time>2018-05-04T11:16:18Z</time>
      </trkpt>
      <trkpt lat="45.12531" lon="5.88495">
        <ele>1770.41</ele>
        <time>2018-05-04T11:16:21Z</time>
      </trkpt>
      <trkpt lat="45.1251" lon="5.88464">
        <ele>1765.6</ele>
        <time>2018-05-04T11:16:26Z</time>
      </trkpt>
      <trkpt lat="45.12507" lon="5.88456">
        <ele>1765.6</ele>
        <time>2018-05-04T11:16:27Z</time>
      </trkpt>
      <trkpt lat="45.12493" lon="5.88429">
        <ele>1762.23</ele>
        <time>2018-05-04T11:16:32Z</time>
      </trkpt>
      <trkpt lat="45.1249" lon="5.88424">
        <ele>1762.23</ele>
        <time>2018-05-04T11:16:33Z</time>
      </trkpt>
      <trkpt lat="45.12486" lon="5.88421">
        <ele>1761.27</ele>
        <time>2018-05-04T11:16:34Z</time>
      </trkpt>
      <trkpt lat="45.12482" lon="5.88418">
        <ele>1760.79</ele>
        <time>2018-05-04T11:16:35Z</time>
      </trkpt>
      <trkpt lat="45.12479" lon="5.88412">
        <ele>1759.83</ele>
        <time>2018-05-04T11:16:36Z</time>
      </trkpt>
      <trkpt lat="45.12475" lon="5.88406">
        <ele>1758.87</ele>
        <time>2018-05-04T11:16:37Z</time>
      </trkpt>
      <trkpt lat="45.12471" lon="5.884">
        <ele>1757.91</ele>
        <time>2018-05-04T11:16:38Z</time>
      </trkpt>
      <trkpt lat="45.12465" lon="5.88395">
        <ele>1756.47</ele>
        <time>2018-05-04T11:16:39Z</time>
      </trkpt>
      <trkpt lat="45.12458" lon="5.88391">
        <ele>1755.99</ele>
        <time>2018-05-04T11:16:40Z</time>
      </trkpt>
      <trkpt lat="45.12453" lon="5.88384">
        <ele>1754.06</ele>
        <time>2018-05-04T11:16:41Z</time>
      </trkpt>
      <trkpt lat="45.12449" lon="5.88375">
        <ele>1753.1</ele>
        <time>2018-05-04T11:16:42Z</time>
      </trkpt>
      <trkpt lat="45.12447" lon="5.88365">
        <ele>1752.14</ele>
        <time>2018-05-04T11:16:43Z</time>
      </trkpt>
      <trkpt lat="45.12444" lon="5.88357">
        <ele>1751.18</ele>
        <time>2018-05-04T11:16:44Z</time>
      </trkpt>
      <trkpt lat="45.1244" lon="5.8835">
        <ele>1750.22</ele>
        <time>2018-05-04T11:16:45Z</time>
      </trkpt>
      <trkpt lat="45.12429" lon="5.88332">
        <ele>1748.29</ele>
        <time>2018-05-04T11:16:48Z</time>
      </trkpt>
      <trkpt lat="45.12427" lon="5.88325">
        <ele>1747.33</ele>
        <time>2018-05-04T11:16:49Z</time>
      </trkpt>
      <trkpt lat="45.12426" lon="5.88318">
        <ele>1746.85</ele>
        <time>2018-05-04T11:16:50Z</time>
      </trkpt>
      <trkpt lat="45.12426" lon="5.88311">
        <ele>1746.85</ele>
        <time>2018-05-04T11:16:51Z</time>
      </trkpt>
      <trkpt lat="45.12425" lon="5.88306">
        <ele>1746.37</ele>
        <time>2018-05-04T11:16:52Z</time>
      </trkpt>
      <trkpt lat="45.12425" lon="5.883">
        <ele>1746.37</ele>
        <time>2018-05-04T11:16:53Z</time>
      </trkpt>
      <trkpt lat="45.12422" lon="5.88275">
        <ele>1744.45</ele>
        <time>2018-05-04T11:16:58Z</time>
      </trkpt>
      <trkpt lat="45.12421" lon="5.88263">
        <ele>1743.01</ele>
        <time>2018-05-04T11:17:00Z</time>
      </trkpt>
      <trkpt lat="45.1242" lon="5.88256">
        <ele>1742.05</ele>
        <time>2018-05-04T11:17:01Z</time>
      </trkpt>
      <trkpt lat="45.12422" lon="5.88227">
        <ele>1738.68</ele>
        <time>2018-05-04T11:17:05Z</time>
      </trkpt>
      <trkpt lat="45.12418" lon="5.882">
        <ele>1734.84</ele>
        <time>2018-05-04T11:17:09Z</time>
      </trkpt>
      <trkpt lat="45.12417" lon="5.88183">
        <ele>1730.99</ele>
        <time>2018-05-04T11:17:12Z</time>
      </trkpt>
      <trkpt lat="45.12418" lon="5.8818">
        <ele>1730.51</ele>
        <time>2018-05-04T11:17:13Z</time>
      </trkpt>
      <trkpt lat="45.1242" lon="5.88168">
        <ele>1727.63</ele>
        <time>2018-05-04T11:17:17Z</time>
      </trkpt>
      <trkpt lat="45.1242" lon="5.88168">
        <ele>1727.63</ele>
        <time>2018-05-04T11:17:18Z</time>
      </trkpt>
      <trkpt lat="45.1242" lon="5.88155">
        <ele>1724.26</ele>
        <time>2018-05-04T11:17:22Z</time>
      </trkpt>
      <trkpt lat="45.1242" lon="5.88154">
        <ele>1724.26</ele>
        <time>2018-05-04T11:17:23Z</time>
      </trkpt>
      <trkpt lat="45.12421" lon="5.88154">
        <ele>1723.78</ele>
        <time>2018-05-04T11:17:33Z</time>
      </trkpt>
      <trkpt lat="45.12421" lon="5.88147">
        <ele>1721.86</ele>
        <time>2018-05-04T11:17:40Z</time>
      </trkpt>
      <trkpt lat="45.12433" lon="5.88123">
        <ele>1716.09</ele>
        <time>2018-05-04T11:17:44Z</time>
      </trkpt>
      <trkpt lat="45.12439" lon="5.88108">
        <ele>1711.76</ele>
        <time>2018-05-04T11:17:46Z</time>
      </trkpt>
      <trkpt lat="45.12444" lon="5.8809">
        <ele>1708.88</ele>
        <time>2018-05-04T11:17:49Z</time>
      </trkpt>
      <trkpt lat="45.12447" lon="5.88092">
        <ele>1706</ele>
        <time>2018-05-04T11:17:52Z</time>
      </trkpt>
      <trkpt lat="45.12448" lon="5.88093">
        <ele>1706</ele>
        <time>2018-05-04T11:18:16Z</time>
      </trkpt>
      <trkpt lat="45.12451" lon="5.88094">
        <ele>1706</ele>
        <time>2018-05-04T11:18:17Z</time>
      </trkpt>
      <trkpt lat="45.12464" lon="5.88088">
        <ele>1703.59</ele>
        <time>2018-05-04T11:18:20Z</time>
      </trkpt>
      <trkpt lat="45.12492" lon="5.88085">
        <ele>1700.71</ele>
        <time>2018-05-04T11:18:24Z</time>
      </trkpt>
      <trkpt lat="45.1252" lon="5.88084">
        <ele>1693.98</ele>
        <time>2018-05-04T11:18:28Z</time>
      </trkpt>
      <trkpt lat="45.12543" lon="5.88078">
        <ele>1692.06</ele>
        <time>2018-05-04T11:18:32Z</time>
      </trkpt>
      <trkpt lat="45.1255" lon="5.88071">
        <ele>1691.1</ele>
        <time>2018-05-04T11:18:33Z</time>
      </trkpt>
      <trkpt lat="45.12563" lon="5.88058">
        <ele>1687.73</ele>
        <time>2018-05-04T11:18:36Z</time>
      </trkpt>
      <trkpt lat="45.12579" lon="5.88016">
        <ele>1682.93</ele>
        <time>2018-05-04T11:18:42Z</time>
      </trkpt>
      <trkpt lat="45.12564" lon="5.8798">
        <ele>1678.6</ele>
        <time>2018-05-04T11:18:49Z</time>
      </trkpt>
      <trkpt lat="45.12563" lon="5.87975">
        <ele>1678.6</ele>
        <time>2018-05-04T11:18:50Z</time>
      </trkpt>
      <trkpt lat="45.12557" lon="5.87964">
        <ele>1677.64</ele>
        <time>2018-05-04T11:18:58Z</time>
      </trkpt>
      <trkpt lat="45.12557" lon="5.87964">
        <ele>1676.68</ele>
        <time>2018-05-04T11:19:20Z</time>
      </trkpt>
      <trkpt lat="45.12557" lon="5.87963">
        <ele>1677.64</ele>
        <time>2018-05-04T11:19:33Z</time>
      </trkpt>
      <trkpt lat="45.12557" lon="5.87963">
        <ele>1677.64</ele>
        <time>2018-05-04T11:19:43Z</time>
      </trkpt>
      <trkpt lat="45.12556" lon="5.87961">
        <ele>1674.75</ele>
        <time>2018-05-04T11:19:45Z</time>
      </trkpt>
      <trkpt lat="45.12553" lon="5.87936">
        <ele>1676.2</ele>
        <time>2018-05-04T11:20:04Z</time>
      </trkpt>
      <trkpt lat="45.12549" lon="5.87929">
        <ele>1676.2</ele>
        <time>2018-05-04T11:20:10Z</time>
      </trkpt>
    </trkseg>
  </trk>
</gpx>